<?xml version="1.0" encoding="UTF-8" standalone="no" ?>
<gpx xmlns="http://www.topografix.com/GPX/1/1" xmlns:xsi="http://www.w3.org/2001/XMLSchema-instance" xsi:schemaLocation="http://www.topografix.com/GPX/1/1 http://www.topografix.com/GPX/1/1/gpx.xsd" version="1.1" creator="VisuGPX - https://www.visugpx.com">
  <metadata>
    <name>2020 Bretagne </name>
  </metadata>
  <trk>
    <name><![CDATA[20-08-10]]></name>
    <trkseg>
      <trkpt lat="47.62272" lon="-3.1929">
        <ele>27.05</ele>
        <time>2020-08-10T08:07:37Z</time>
      </trkpt>
      <trkpt lat="47.62272" lon="-3.1929">
        <ele>27.05</ele>
        <time>2020-08-10T08:07:38Z</time>
      </trkpt>
      <trkpt lat="47.62278" lon="-3.19291">
        <ele>27.05</ele>
        <time>2020-08-10T08:08:00Z</time>
      </trkpt>
      <trkpt lat="47.62278" lon="-3.19292">
        <ele>23.69</ele>
        <time>2020-08-10T08:08:18Z</time>
      </trkpt>
      <trkpt lat="47.62278" lon="-3.19292">
        <ele>22.73</ele>
        <time>2020-08-10T08:08:20Z</time>
      </trkpt>
      <trkpt lat="47.62279" lon="-3.19292">
        <ele>19.36</ele>
        <time>2020-08-10T08:08:32Z</time>
      </trkpt>
      <trkpt lat="47.62279" lon="-3.19292">
        <ele>19.36</ele>
        <time>2020-08-10T08:08:33Z</time>
      </trkpt>
      <trkpt lat="47.62279" lon="-3.19289">
        <ele>18.4</ele>
        <time>2020-08-10T08:08:42Z</time>
      </trkpt>
      <trkpt lat="47.62277" lon="-3.1928">
        <ele>17.44</ele>
        <time>2020-08-10T08:08:52Z</time>
      </trkpt>
      <trkpt lat="47.62277" lon="-3.19279">
        <ele>17.44</ele>
        <time>2020-08-10T08:08:53Z</time>
      </trkpt>
      <trkpt lat="47.62269" lon="-3.19272">
        <ele>17.92</ele>
        <time>2020-08-10T08:09:05Z</time>
      </trkpt>
      <trkpt lat="47.62254" lon="-3.19271">
        <ele>16.96</ele>
        <time>2020-08-10T08:09:20Z</time>
      </trkpt>
      <trkpt lat="47.62241" lon="-3.1927">
        <ele>16.96</ele>
        <time>2020-08-10T08:09:34Z</time>
      </trkpt>
      <trkpt lat="47.62227" lon="-3.19271">
        <ele>16.96</ele>
        <time>2020-08-10T08:09:47Z</time>
      </trkpt>
      <trkpt lat="47.62224" lon="-3.19272">
        <ele>16.48</ele>
        <time>2020-08-10T08:09:50Z</time>
      </trkpt>
      <trkpt lat="47.6222" lon="-3.19276">
        <ele>16</ele>
        <time>2020-08-10T08:09:55Z</time>
      </trkpt>
      <trkpt lat="47.62217" lon="-3.19275">
        <ele>16.48</ele>
        <time>2020-08-10T08:09:58Z</time>
      </trkpt>
      <trkpt lat="47.62212" lon="-3.1928">
        <ele>16</ele>
        <time>2020-08-10T08:10:05Z</time>
      </trkpt>
      <trkpt lat="47.62212" lon="-3.19283">
        <ele>16.48</ele>
        <time>2020-08-10T08:10:07Z</time>
      </trkpt>
      <trkpt lat="47.62208" lon="-3.19287">
        <ele>16</ele>
        <time>2020-08-10T08:10:22Z</time>
      </trkpt>
      <trkpt lat="47.62207" lon="-3.1929">
        <ele>16</ele>
        <time>2020-08-10T08:10:24Z</time>
      </trkpt>
      <trkpt lat="47.62203" lon="-3.19293">
        <ele>15.04</ele>
        <time>2020-08-10T08:10:43Z</time>
      </trkpt>
      <trkpt lat="47.62203" lon="-3.19294">
        <ele>14.56</ele>
        <time>2020-08-10T08:11:15Z</time>
      </trkpt>
      <trkpt lat="47.622" lon="-3.19297">
        <ele>14.08</ele>
        <time>2020-08-10T08:11:40Z</time>
      </trkpt>
      <trkpt lat="47.62199" lon="-3.19307">
        <ele>14.08</ele>
        <time>2020-08-10T08:11:53Z</time>
      </trkpt>
      <trkpt lat="47.62199" lon="-3.19308">
        <ele>14.08</ele>
        <time>2020-08-10T08:11:54Z</time>
      </trkpt>
      <trkpt lat="47.62198" lon="-3.19324">
        <ele>13.6</ele>
        <time>2020-08-10T08:12:08Z</time>
      </trkpt>
      <trkpt lat="47.62201" lon="-3.19338">
        <ele>14.08</ele>
        <time>2020-08-10T08:12:21Z</time>
      </trkpt>
      <trkpt lat="47.62202" lon="-3.19356">
        <ele>13.6</ele>
        <time>2020-08-10T08:12:34Z</time>
      </trkpt>
      <trkpt lat="47.62203" lon="-3.19359">
        <ele>13.6</ele>
        <time>2020-08-10T08:12:37Z</time>
      </trkpt>
      <trkpt lat="47.62209" lon="-3.19375">
        <ele>13.12</ele>
        <time>2020-08-10T08:12:51Z</time>
      </trkpt>
      <trkpt lat="47.62208" lon="-3.19379">
        <ele>13.6</ele>
        <time>2020-08-10T08:12:54Z</time>
      </trkpt>
      <trkpt lat="47.62211" lon="-3.194">
        <ele>13.12</ele>
        <time>2020-08-10T08:13:09Z</time>
      </trkpt>
      <trkpt lat="47.62212" lon="-3.19416">
        <ele>12.63</ele>
        <time>2020-08-10T08:13:19Z</time>
      </trkpt>
      <trkpt lat="47.62221" lon="-3.19433">
        <ele>12.15</ele>
        <time>2020-08-10T08:13:32Z</time>
      </trkpt>
      <trkpt lat="47.62237" lon="-3.19453">
        <ele>11.67</ele>
        <time>2020-08-10T08:13:50Z</time>
      </trkpt>
      <trkpt lat="47.62247" lon="-3.19465">
        <ele>12.15</ele>
        <time>2020-08-10T08:14:03Z</time>
      </trkpt>
      <trkpt lat="47.62256" lon="-3.19479">
        <ele>11.67</ele>
        <time>2020-08-10T08:14:15Z</time>
      </trkpt>
      <trkpt lat="47.62267" lon="-3.19496">
        <ele>11.67</ele>
        <time>2020-08-10T08:14:30Z</time>
      </trkpt>
      <trkpt lat="47.62272" lon="-3.19504">
        <ele>11.67</ele>
        <time>2020-08-10T08:14:37Z</time>
      </trkpt>
      <trkpt lat="47.62273" lon="-3.19512">
        <ele>11.67</ele>
        <time>2020-08-10T08:14:42Z</time>
      </trkpt>
      <trkpt lat="47.62281" lon="-3.19526">
        <ele>11.19</ele>
        <time>2020-08-10T08:14:54Z</time>
      </trkpt>
      <trkpt lat="47.62291" lon="-3.19535">
        <ele>11.67</ele>
        <time>2020-08-10T08:15:05Z</time>
      </trkpt>
      <trkpt lat="47.62307" lon="-3.19559">
        <ele>11.67</ele>
        <time>2020-08-10T08:15:25Z</time>
      </trkpt>
      <trkpt lat="47.62309" lon="-3.19561">
        <ele>11.67</ele>
        <time>2020-08-10T08:15:27Z</time>
      </trkpt>
      <trkpt lat="47.62319" lon="-3.19575">
        <ele>11.67</ele>
        <time>2020-08-10T08:15:40Z</time>
      </trkpt>
      <trkpt lat="47.62329" lon="-3.19574">
        <ele>12.63</ele>
        <time>2020-08-10T08:15:54Z</time>
      </trkpt>
      <trkpt lat="47.62332" lon="-3.19574">
        <ele>12.63</ele>
        <time>2020-08-10T08:16:04Z</time>
      </trkpt>
      <trkpt lat="47.62335" lon="-3.19575">
        <ele>12.63</ele>
        <time>2020-08-10T08:16:08Z</time>
      </trkpt>
      <trkpt lat="47.62342" lon="-3.19587">
        <ele>13.12</ele>
        <time>2020-08-10T08:16:21Z</time>
      </trkpt>
      <trkpt lat="47.62349" lon="-3.19596">
        <ele>13.12</ele>
        <time>2020-08-10T08:16:32Z</time>
      </trkpt>
      <trkpt lat="47.6235" lon="-3.19599">
        <ele>12.63</ele>
        <time>2020-08-10T08:16:35Z</time>
      </trkpt>
      <trkpt lat="47.62355" lon="-3.19607">
        <ele>13.12</ele>
        <time>2020-08-10T08:16:43Z</time>
      </trkpt>
      <trkpt lat="47.62356" lon="-3.1961">
        <ele>13.12</ele>
        <time>2020-08-10T08:16:45Z</time>
      </trkpt>
      <trkpt lat="47.62361" lon="-3.19622">
        <ele>13.12</ele>
        <time>2020-08-10T08:16:56Z</time>
      </trkpt>
      <trkpt lat="47.62363" lon="-3.19629">
        <ele>12.63</ele>
        <time>2020-08-10T08:17:03Z</time>
      </trkpt>
      <trkpt lat="47.62365" lon="-3.19632">
        <ele>12.63</ele>
        <time>2020-08-10T08:17:06Z</time>
      </trkpt>
      <trkpt lat="47.6237" lon="-3.19648">
        <ele>12.63</ele>
        <time>2020-08-10T08:17:20Z</time>
      </trkpt>
      <trkpt lat="47.62374" lon="-3.19657">
        <ele>12.15</ele>
        <time>2020-08-10T08:17:32Z</time>
      </trkpt>
      <trkpt lat="47.62374" lon="-3.19659">
        <ele>12.15</ele>
        <time>2020-08-10T08:17:45Z</time>
      </trkpt>
      <trkpt lat="47.62376" lon="-3.19665">
        <ele>11.67</ele>
        <time>2020-08-10T08:18:00Z</time>
      </trkpt>
      <trkpt lat="47.6238" lon="-3.19679">
        <ele>12.15</ele>
        <time>2020-08-10T08:18:13Z</time>
      </trkpt>
      <trkpt lat="47.62381" lon="-3.19683">
        <ele>11.67</ele>
        <time>2020-08-10T08:18:18Z</time>
      </trkpt>
      <trkpt lat="47.62385" lon="-3.19699">
        <ele>11.67</ele>
        <time>2020-08-10T08:18:32Z</time>
      </trkpt>
      <trkpt lat="47.6239" lon="-3.1971">
        <ele>12.63</ele>
        <time>2020-08-10T08:18:45Z</time>
      </trkpt>
      <trkpt lat="47.62394" lon="-3.19722">
        <ele>12.63</ele>
        <time>2020-08-10T08:18:59Z</time>
      </trkpt>
      <trkpt lat="47.62399" lon="-3.19732">
        <ele>12.15</ele>
        <time>2020-08-10T08:19:11Z</time>
      </trkpt>
      <trkpt lat="47.62405" lon="-3.19739">
        <ele>12.63</ele>
        <time>2020-08-10T08:19:24Z</time>
      </trkpt>
      <trkpt lat="47.62406" lon="-3.19739">
        <ele>11.67</ele>
        <time>2020-08-10T08:19:40Z</time>
      </trkpt>
      <trkpt lat="47.62406" lon="-3.19739">
        <ele>12.63</ele>
        <time>2020-08-10T08:19:59Z</time>
      </trkpt>
      <trkpt lat="47.62407" lon="-3.19739">
        <ele>11.67</ele>
        <time>2020-08-10T08:20:10Z</time>
      </trkpt>
      <trkpt lat="47.62408" lon="-3.19739">
        <ele>11.67</ele>
        <time>2020-08-10T08:20:33Z</time>
      </trkpt>
      <trkpt lat="47.62407" lon="-3.19739">
        <ele>12.15</ele>
        <time>2020-08-10T08:21:02Z</time>
      </trkpt>
      <trkpt lat="47.6241" lon="-3.19742">
        <ele>12.15</ele>
        <time>2020-08-10T08:21:18Z</time>
      </trkpt>
      <trkpt lat="47.62414" lon="-3.19748">
        <ele>11.67</ele>
        <time>2020-08-10T08:21:28Z</time>
      </trkpt>
      <trkpt lat="47.62417" lon="-3.19755">
        <ele>11.19</ele>
        <time>2020-08-10T08:21:34Z</time>
      </trkpt>
      <trkpt lat="47.62422" lon="-3.19759">
        <ele>11.19</ele>
        <time>2020-08-10T08:21:40Z</time>
      </trkpt>
      <trkpt lat="47.62432" lon="-3.19766">
        <ele>10.23</ele>
        <time>2020-08-10T08:21:54Z</time>
      </trkpt>
      <trkpt lat="47.62434" lon="-3.19767">
        <ele>10.23</ele>
        <time>2020-08-10T08:22:01Z</time>
      </trkpt>
      <trkpt lat="47.62436" lon="-3.19767">
        <ele>10.71</ele>
        <time>2020-08-10T08:22:03Z</time>
      </trkpt>
      <trkpt lat="47.62449" lon="-3.19766">
        <ele>10.23</ele>
        <time>2020-08-10T08:22:16Z</time>
      </trkpt>
      <trkpt lat="47.6245" lon="-3.19766">
        <ele>10.23</ele>
        <time>2020-08-10T08:22:17Z</time>
      </trkpt>
      <trkpt lat="47.62463" lon="-3.19764">
        <ele>10.71</ele>
        <time>2020-08-10T08:22:31Z</time>
      </trkpt>
      <trkpt lat="47.6248" lon="-3.19761">
        <ele>11.19</ele>
        <time>2020-08-10T08:22:47Z</time>
      </trkpt>
      <trkpt lat="47.62495" lon="-3.19761">
        <ele>10.71</ele>
        <time>2020-08-10T08:23:01Z</time>
      </trkpt>
      <trkpt lat="47.62497" lon="-3.19761">
        <ele>10.71</ele>
        <time>2020-08-10T08:23:03Z</time>
      </trkpt>
      <trkpt lat="47.62514" lon="-3.19758">
        <ele>10.71</ele>
        <time>2020-08-10T08:23:19Z</time>
      </trkpt>
      <trkpt lat="47.62527" lon="-3.19756">
        <ele>10.71</ele>
        <time>2020-08-10T08:23:33Z</time>
      </trkpt>
      <trkpt lat="47.62532" lon="-3.1975">
        <ele>11.19</ele>
        <time>2020-08-10T08:23:40Z</time>
      </trkpt>
      <trkpt lat="47.62535" lon="-3.19746">
        <ele>11.67</ele>
        <time>2020-08-10T08:23:45Z</time>
      </trkpt>
      <trkpt lat="47.6254" lon="-3.19735">
        <ele>12.63</ele>
        <time>2020-08-10T08:23:58Z</time>
      </trkpt>
      <trkpt lat="47.62543" lon="-3.19739">
        <ele>12.15</ele>
        <time>2020-08-10T08:24:03Z</time>
      </trkpt>
      <trkpt lat="47.62545" lon="-3.19744">
        <ele>11.67</ele>
        <time>2020-08-10T08:24:07Z</time>
      </trkpt>
      <trkpt lat="47.62545" lon="-3.19746">
        <ele>11.19</ele>
        <time>2020-08-10T08:24:09Z</time>
      </trkpt>
      <trkpt lat="47.62549" lon="-3.19756">
        <ele>10.71</ele>
        <time>2020-08-10T08:24:16Z</time>
      </trkpt>
      <trkpt lat="47.62553" lon="-3.19757">
        <ele>10.23</ele>
        <time>2020-08-10T08:24:20Z</time>
      </trkpt>
      <trkpt lat="47.62556" lon="-3.19756">
        <ele>10.23</ele>
        <time>2020-08-10T08:24:23Z</time>
      </trkpt>
      <trkpt lat="47.62563" lon="-3.19761">
        <ele>10.23</ele>
        <time>2020-08-10T08:24:30Z</time>
      </trkpt>
      <trkpt lat="47.62567" lon="-3.19764">
        <ele>10.23</ele>
        <time>2020-08-10T08:24:44Z</time>
      </trkpt>
      <trkpt lat="47.62566" lon="-3.19761">
        <ele>10.23</ele>
        <time>2020-08-10T08:24:54Z</time>
      </trkpt>
      <trkpt lat="47.62566" lon="-3.19761">
        <ele>10.71</ele>
        <time>2020-08-10T08:25:14Z</time>
      </trkpt>
      <trkpt lat="47.62567" lon="-3.19762">
        <ele>10.71</ele>
        <time>2020-08-10T08:25:15Z</time>
      </trkpt>
      <trkpt lat="47.6257" lon="-3.19765">
        <ele>10.71</ele>
        <time>2020-08-10T08:25:19Z</time>
      </trkpt>
      <trkpt lat="47.62586" lon="-3.19764">
        <ele>10.23</ele>
        <time>2020-08-10T08:25:34Z</time>
      </trkpt>
      <trkpt lat="47.62594" lon="-3.1976">
        <ele>10.71</ele>
        <time>2020-08-10T08:25:45Z</time>
      </trkpt>
      <trkpt lat="47.62596" lon="-3.1976">
        <ele>11.19</ele>
        <time>2020-08-10T08:25:47Z</time>
      </trkpt>
      <trkpt lat="47.626" lon="-3.19762">
        <ele>10.23</ele>
        <time>2020-08-10T08:25:51Z</time>
      </trkpt>
      <trkpt lat="47.62604" lon="-3.19762">
        <ele>10.71</ele>
        <time>2020-08-10T08:25:55Z</time>
      </trkpt>
      <trkpt lat="47.62609" lon="-3.19765">
        <ele>10.23</ele>
        <time>2020-08-10T08:26:00Z</time>
      </trkpt>
      <trkpt lat="47.62624" lon="-3.19766">
        <ele>10.23</ele>
        <time>2020-08-10T08:26:16Z</time>
      </trkpt>
      <trkpt lat="47.62637" lon="-3.19765">
        <ele>10.71</ele>
        <time>2020-08-10T08:26:29Z</time>
      </trkpt>
      <trkpt lat="47.62644" lon="-3.19764">
        <ele>10.23</ele>
        <time>2020-08-10T08:26:38Z</time>
      </trkpt>
      <trkpt lat="47.62648" lon="-3.19764">
        <ele>10.23</ele>
        <time>2020-08-10T08:26:42Z</time>
      </trkpt>
      <trkpt lat="47.62663" lon="-3.19765">
        <ele>10.71</ele>
        <time>2020-08-10T08:26:57Z</time>
      </trkpt>
      <trkpt lat="47.62675" lon="-3.19764">
        <ele>10.71</ele>
        <time>2020-08-10T08:27:10Z</time>
      </trkpt>
      <trkpt lat="47.62692" lon="-3.19768">
        <ele>10.23</ele>
        <time>2020-08-10T08:27:27Z</time>
      </trkpt>
      <trkpt lat="47.62706" lon="-3.19771">
        <ele>10.23</ele>
        <time>2020-08-10T08:27:42Z</time>
      </trkpt>
      <trkpt lat="47.62707" lon="-3.19771">
        <ele>10.23</ele>
        <time>2020-08-10T08:27:43Z</time>
      </trkpt>
      <trkpt lat="47.6271" lon="-3.19771">
        <ele>10.23</ele>
        <time>2020-08-10T08:27:46Z</time>
      </trkpt>
      <trkpt lat="47.62725" lon="-3.19772">
        <ele>10.23</ele>
        <time>2020-08-10T08:28:01Z</time>
      </trkpt>
      <trkpt lat="47.62741" lon="-3.19775">
        <ele>9.75</ele>
        <time>2020-08-10T08:28:17Z</time>
      </trkpt>
      <trkpt lat="47.62742" lon="-3.19776">
        <ele>10.23</ele>
        <time>2020-08-10T08:28:27Z</time>
      </trkpt>
      <trkpt lat="47.62757" lon="-3.19779">
        <ele>9.75</ele>
        <time>2020-08-10T08:28:41Z</time>
      </trkpt>
      <trkpt lat="47.62768" lon="-3.19782">
        <ele>10.23</ele>
        <time>2020-08-10T08:28:53Z</time>
      </trkpt>
      <trkpt lat="47.62774" lon="-3.19782">
        <ele>9.75</ele>
        <time>2020-08-10T08:29:01Z</time>
      </trkpt>
      <trkpt lat="47.6278" lon="-3.19785">
        <ele>9.75</ele>
        <time>2020-08-10T08:29:08Z</time>
      </trkpt>
      <trkpt lat="47.62788" lon="-3.19791">
        <ele>9.27</ele>
        <time>2020-08-10T08:29:18Z</time>
      </trkpt>
      <trkpt lat="47.62796" lon="-3.19793">
        <ele>9.27</ele>
        <time>2020-08-10T08:29:27Z</time>
      </trkpt>
      <trkpt lat="47.6281" lon="-3.19798">
        <ele>9.27</ele>
        <time>2020-08-10T08:29:43Z</time>
      </trkpt>
      <trkpt lat="47.62819" lon="-3.19801">
        <ele>9.75</ele>
        <time>2020-08-10T08:29:53Z</time>
      </trkpt>
      <trkpt lat="47.62829" lon="-3.19803">
        <ele>9.27</ele>
        <time>2020-08-10T08:30:04Z</time>
      </trkpt>
      <trkpt lat="47.62844" lon="-3.19807">
        <ele>9.75</ele>
        <time>2020-08-10T08:30:20Z</time>
      </trkpt>
      <trkpt lat="47.6285" lon="-3.19808">
        <ele>9.75</ele>
        <time>2020-08-10T08:30:26Z</time>
      </trkpt>
      <trkpt lat="47.62854" lon="-3.19807">
        <ele>9.75</ele>
        <time>2020-08-10T08:30:30Z</time>
      </trkpt>
      <trkpt lat="47.62867" lon="-3.19812">
        <ele>10.23</ele>
        <time>2020-08-10T08:30:45Z</time>
      </trkpt>
      <trkpt lat="47.62873" lon="-3.19815">
        <ele>9.75</ele>
        <time>2020-08-10T08:30:52Z</time>
      </trkpt>
      <trkpt lat="47.62884" lon="-3.19823">
        <ele>9.27</ele>
        <time>2020-08-10T08:31:07Z</time>
      </trkpt>
      <trkpt lat="47.62884" lon="-3.19824">
        <ele>9.27</ele>
        <time>2020-08-10T08:31:14Z</time>
      </trkpt>
      <trkpt lat="47.62894" lon="-3.19827">
        <ele>9.75</ele>
        <time>2020-08-10T08:31:24Z</time>
      </trkpt>
      <trkpt lat="47.629" lon="-3.19831">
        <ele>9.75</ele>
        <time>2020-08-10T08:31:30Z</time>
      </trkpt>
      <trkpt lat="47.62904" lon="-3.19834">
        <ele>9.75</ele>
        <time>2020-08-10T08:31:35Z</time>
      </trkpt>
      <trkpt lat="47.62918" lon="-3.19843">
        <ele>9.27</ele>
        <time>2020-08-10T08:31:51Z</time>
      </trkpt>
      <trkpt lat="47.6292" lon="-3.19845">
        <ele>9.75</ele>
        <time>2020-08-10T08:31:54Z</time>
      </trkpt>
      <trkpt lat="47.62924" lon="-3.19849">
        <ele>9.75</ele>
        <time>2020-08-10T08:31:59Z</time>
      </trkpt>
      <trkpt lat="47.62935" lon="-3.19857">
        <ele>9.75</ele>
        <time>2020-08-10T08:32:11Z</time>
      </trkpt>
      <trkpt lat="47.62943" lon="-3.19861">
        <ele>9.27</ele>
        <time>2020-08-10T08:32:19Z</time>
      </trkpt>
      <trkpt lat="47.62948" lon="-3.19865">
        <ele>9.75</ele>
        <time>2020-08-10T08:32:25Z</time>
      </trkpt>
      <trkpt lat="47.62954" lon="-3.19871">
        <ele>8.79</ele>
        <time>2020-08-10T08:32:33Z</time>
      </trkpt>
      <trkpt lat="47.62965" lon="-3.19876">
        <ele>9.27</ele>
        <time>2020-08-10T08:32:47Z</time>
      </trkpt>
      <trkpt lat="47.62977" lon="-3.19884">
        <ele>9.27</ele>
        <time>2020-08-10T08:33:02Z</time>
      </trkpt>
      <trkpt lat="47.62985" lon="-3.1989">
        <ele>9.27</ele>
        <time>2020-08-10T08:33:13Z</time>
      </trkpt>
      <trkpt lat="47.62996" lon="-3.19901">
        <ele>8.79</ele>
        <time>2020-08-10T08:33:26Z</time>
      </trkpt>
      <trkpt lat="47.63007" lon="-3.19912">
        <ele>8.31</ele>
        <time>2020-08-10T08:33:41Z</time>
      </trkpt>
      <trkpt lat="47.63018" lon="-3.19921">
        <ele>8.31</ele>
        <time>2020-08-10T08:33:54Z</time>
      </trkpt>
      <trkpt lat="47.63018" lon="-3.19921">
        <ele>8.31</ele>
        <time>2020-08-10T08:33:55Z</time>
      </trkpt>
      <trkpt lat="47.63025" lon="-3.19926">
        <ele>8.31</ele>
        <time>2020-08-10T08:34:02Z</time>
      </trkpt>
      <trkpt lat="47.63032" lon="-3.19929">
        <ele>8.79</ele>
        <time>2020-08-10T08:34:09Z</time>
      </trkpt>
      <trkpt lat="47.63036" lon="-3.1993">
        <ele>8.31</ele>
        <time>2020-08-10T08:34:16Z</time>
      </trkpt>
      <trkpt lat="47.63039" lon="-3.19933">
        <ele>8.79</ele>
        <time>2020-08-10T08:34:20Z</time>
      </trkpt>
      <trkpt lat="47.63049" lon="-3.19943">
        <ele>7.83</ele>
        <time>2020-08-10T08:34:36Z</time>
      </trkpt>
      <trkpt lat="47.63049" lon="-3.19943">
        <ele>7.83</ele>
        <time>2020-08-10T08:34:41Z</time>
      </trkpt>
      <trkpt lat="47.63057" lon="-3.19951">
        <ele>7.83</ele>
        <time>2020-08-10T08:34:51Z</time>
      </trkpt>
      <trkpt lat="47.63069" lon="-3.19958">
        <ele>7.83</ele>
        <time>2020-08-10T08:35:07Z</time>
      </trkpt>
      <trkpt lat="47.63072" lon="-3.19962">
        <ele>8.31</ele>
        <time>2020-08-10T08:35:11Z</time>
      </trkpt>
      <trkpt lat="47.63075" lon="-3.19963">
        <ele>7.83</ele>
        <time>2020-08-10T08:35:14Z</time>
      </trkpt>
      <trkpt lat="47.63081" lon="-3.19971">
        <ele>7.35</ele>
        <time>2020-08-10T08:35:25Z</time>
      </trkpt>
      <trkpt lat="47.63096" lon="-3.19982">
        <ele>7.35</ele>
        <time>2020-08-10T08:35:40Z</time>
      </trkpt>
      <trkpt lat="47.63099" lon="-3.19982">
        <ele>8.31</ele>
        <time>2020-08-10T08:35:43Z</time>
      </trkpt>
      <trkpt lat="47.63111" lon="-3.19991">
        <ele>8.31</ele>
        <time>2020-08-10T08:35:59Z</time>
      </trkpt>
      <trkpt lat="47.63118" lon="-3.19997">
        <ele>8.31</ele>
        <time>2020-08-10T08:36:08Z</time>
      </trkpt>
      <trkpt lat="47.63121" lon="-3.19998">
        <ele>7.83</ele>
        <time>2020-08-10T08:36:11Z</time>
      </trkpt>
      <trkpt lat="47.63126" lon="-3.20002">
        <ele>7.83</ele>
        <time>2020-08-10T08:36:17Z</time>
      </trkpt>
      <trkpt lat="47.63129" lon="-3.20004">
        <ele>7.35</ele>
        <time>2020-08-10T08:36:21Z</time>
      </trkpt>
      <trkpt lat="47.63141" lon="-3.20015">
        <ele>7.83</ele>
        <time>2020-08-10T08:36:37Z</time>
      </trkpt>
      <trkpt lat="47.63151" lon="-3.20022">
        <ele>7.35</ele>
        <time>2020-08-10T08:36:49Z</time>
      </trkpt>
      <trkpt lat="47.63152" lon="-3.20024">
        <ele>7.35</ele>
        <time>2020-08-10T08:36:51Z</time>
      </trkpt>
      <trkpt lat="47.6316" lon="-3.2003">
        <ele>7.35</ele>
        <time>2020-08-10T08:37:02Z</time>
      </trkpt>
      <trkpt lat="47.63169" lon="-3.20036">
        <ele>7.83</ele>
        <time>2020-08-10T08:37:13Z</time>
      </trkpt>
      <trkpt lat="47.63174" lon="-3.20039">
        <ele>7.83</ele>
        <time>2020-08-10T08:37:18Z</time>
      </trkpt>
      <trkpt lat="47.6318" lon="-3.20044">
        <ele>7.35</ele>
        <time>2020-08-10T08:37:25Z</time>
      </trkpt>
      <trkpt lat="47.63182" lon="-3.20044">
        <ele>7.35</ele>
        <time>2020-08-10T08:37:27Z</time>
      </trkpt>
      <trkpt lat="47.63189" lon="-3.20051">
        <ele>7.35</ele>
        <time>2020-08-10T08:37:35Z</time>
      </trkpt>
      <trkpt lat="47.63193" lon="-3.20053">
        <ele>7.35</ele>
        <time>2020-08-10T08:37:45Z</time>
      </trkpt>
      <trkpt lat="47.63201" lon="-3.20059">
        <ele>7.35</ele>
        <time>2020-08-10T08:37:58Z</time>
      </trkpt>
      <trkpt lat="47.63201" lon="-3.20059">
        <ele>7.35</ele>
        <time>2020-08-10T08:38:01Z</time>
      </trkpt>
      <trkpt lat="47.63205" lon="-3.20063">
        <ele>7.35</ele>
        <time>2020-08-10T08:38:05Z</time>
      </trkpt>
      <trkpt lat="47.63208" lon="-3.20066">
        <ele>6.87</ele>
        <time>2020-08-10T08:38:08Z</time>
      </trkpt>
      <trkpt lat="47.63217" lon="-3.20072">
        <ele>7.83</ele>
        <time>2020-08-10T08:38:23Z</time>
      </trkpt>
      <trkpt lat="47.63218" lon="-3.20071">
        <ele>7.83</ele>
        <time>2020-08-10T08:38:39Z</time>
      </trkpt>
      <trkpt lat="47.63218" lon="-3.2007">
        <ele>7.83</ele>
        <time>2020-08-10T08:38:53Z</time>
      </trkpt>
      <trkpt lat="47.63217" lon="-3.20071">
        <ele>7.83</ele>
        <time>2020-08-10T08:39:15Z</time>
      </trkpt>
      <trkpt lat="47.63217" lon="-3.20071">
        <ele>7.35</ele>
        <time>2020-08-10T08:39:35Z</time>
      </trkpt>
      <trkpt lat="47.63217" lon="-3.20071">
        <ele>7.35</ele>
        <time>2020-08-10T08:40:09Z</time>
      </trkpt>
      <trkpt lat="47.63217" lon="-3.20072">
        <ele>7.83</ele>
        <time>2020-08-10T08:40:21Z</time>
      </trkpt>
      <trkpt lat="47.63217" lon="-3.20072">
        <ele>7.83</ele>
        <time>2020-08-10T08:40:35Z</time>
      </trkpt>
      <trkpt lat="47.63217" lon="-3.20072">
        <ele>7.83</ele>
        <time>2020-08-10T08:40:52Z</time>
      </trkpt>
      <trkpt lat="47.63217" lon="-3.20072">
        <ele>7.83</ele>
        <time>2020-08-10T08:41:06Z</time>
      </trkpt>
      <trkpt lat="47.63218" lon="-3.20072">
        <ele>7.83</ele>
        <time>2020-08-10T08:41:32Z</time>
      </trkpt>
      <trkpt lat="47.63218" lon="-3.20073">
        <ele>7.35</ele>
        <time>2020-08-10T08:41:40Z</time>
      </trkpt>
      <trkpt lat="47.63218" lon="-3.20072">
        <ele>7.35</ele>
        <time>2020-08-10T08:41:52Z</time>
      </trkpt>
      <trkpt lat="47.63218" lon="-3.20073">
        <ele>7.83</ele>
        <time>2020-08-10T08:42:12Z</time>
      </trkpt>
      <trkpt lat="47.63219" lon="-3.20073">
        <ele>7.83</ele>
        <time>2020-08-10T08:42:31Z</time>
      </trkpt>
      <trkpt lat="47.63219" lon="-3.20074">
        <ele>7.83</ele>
        <time>2020-08-10T08:42:45Z</time>
      </trkpt>
      <trkpt lat="47.6323" lon="-3.20089">
        <ele>8.31</ele>
        <time>2020-08-10T08:43:00Z</time>
      </trkpt>
      <trkpt lat="47.63238" lon="-3.20098">
        <ele>7.83</ele>
        <time>2020-08-10T08:43:10Z</time>
      </trkpt>
      <trkpt lat="47.63252" lon="-3.20109">
        <ele>7.83</ele>
        <time>2020-08-10T08:43:27Z</time>
      </trkpt>
      <trkpt lat="47.63255" lon="-3.20111">
        <ele>8.31</ele>
        <time>2020-08-10T08:43:30Z</time>
      </trkpt>
      <trkpt lat="47.63257" lon="-3.20114">
        <ele>7.83</ele>
        <time>2020-08-10T08:43:34Z</time>
      </trkpt>
      <trkpt lat="47.6326" lon="-3.20118">
        <ele>7.35</ele>
        <time>2020-08-10T08:43:38Z</time>
      </trkpt>
      <trkpt lat="47.63272" lon="-3.2013">
        <ele>7.83</ele>
        <time>2020-08-10T08:43:53Z</time>
      </trkpt>
      <trkpt lat="47.63281" lon="-3.20138">
        <ele>8.79</ele>
        <time>2020-08-10T08:44:05Z</time>
      </trkpt>
      <trkpt lat="47.63294" lon="-3.20149">
        <ele>8.31</ele>
        <time>2020-08-10T08:44:20Z</time>
      </trkpt>
      <trkpt lat="47.63303" lon="-3.20158">
        <ele>8.31</ele>
        <time>2020-08-10T08:44:31Z</time>
      </trkpt>
      <trkpt lat="47.63318" lon="-3.20172">
        <ele>7.83</ele>
        <time>2020-08-10T08:44:49Z</time>
      </trkpt>
      <trkpt lat="47.63329" lon="-3.20183">
        <ele>7.83</ele>
        <time>2020-08-10T08:45:02Z</time>
      </trkpt>
      <trkpt lat="47.63332" lon="-3.20185">
        <ele>7.83</ele>
        <time>2020-08-10T08:45:06Z</time>
      </trkpt>
      <trkpt lat="47.63345" lon="-3.20195">
        <ele>8.31</ele>
        <time>2020-08-10T08:45:21Z</time>
      </trkpt>
      <trkpt lat="47.63357" lon="-3.20206">
        <ele>7.83</ele>
        <time>2020-08-10T08:45:36Z</time>
      </trkpt>
      <trkpt lat="47.63362" lon="-3.20209">
        <ele>8.31</ele>
        <time>2020-08-10T08:45:41Z</time>
      </trkpt>
      <trkpt lat="47.63365" lon="-3.20212">
        <ele>7.83</ele>
        <time>2020-08-10T08:45:45Z</time>
      </trkpt>
      <trkpt lat="47.63371" lon="-3.20218">
        <ele>8.31</ele>
        <time>2020-08-10T08:45:52Z</time>
      </trkpt>
      <trkpt lat="47.63372" lon="-3.2022">
        <ele>8.31</ele>
        <time>2020-08-10T08:45:54Z</time>
      </trkpt>
      <trkpt lat="47.63378" lon="-3.20225">
        <ele>7.83</ele>
        <time>2020-08-10T08:46:02Z</time>
      </trkpt>
      <trkpt lat="47.63383" lon="-3.20229">
        <ele>8.31</ele>
        <time>2020-08-10T08:46:10Z</time>
      </trkpt>
      <trkpt lat="47.63385" lon="-3.2023">
        <ele>8.79</ele>
        <time>2020-08-10T08:46:12Z</time>
      </trkpt>
      <trkpt lat="47.63396" lon="-3.20242">
        <ele>7.83</ele>
        <time>2020-08-10T08:46:26Z</time>
      </trkpt>
      <trkpt lat="47.63407" lon="-3.20254">
        <ele>8.31</ele>
        <time>2020-08-10T08:46:41Z</time>
      </trkpt>
      <trkpt lat="47.63408" lon="-3.20255">
        <ele>8.31</ele>
        <time>2020-08-10T08:46:42Z</time>
      </trkpt>
      <trkpt lat="47.63415" lon="-3.20259">
        <ele>7.83</ele>
        <time>2020-08-10T08:46:50Z</time>
      </trkpt>
      <trkpt lat="47.63428" lon="-3.2027">
        <ele>7.83</ele>
        <time>2020-08-10T08:47:06Z</time>
      </trkpt>
      <trkpt lat="47.63439" lon="-3.2028">
        <ele>7.83</ele>
        <time>2020-08-10T08:47:19Z</time>
      </trkpt>
      <trkpt lat="47.63447" lon="-3.20285">
        <ele>7.83</ele>
        <time>2020-08-10T08:47:29Z</time>
      </trkpt>
      <trkpt lat="47.6345" lon="-3.20288">
        <ele>7.83</ele>
        <time>2020-08-10T08:47:33Z</time>
      </trkpt>
      <trkpt lat="47.63454" lon="-3.20292">
        <ele>7.83</ele>
        <time>2020-08-10T08:47:38Z</time>
      </trkpt>
      <trkpt lat="47.63464" lon="-3.20297">
        <ele>8.31</ele>
        <time>2020-08-10T08:47:53Z</time>
      </trkpt>
      <trkpt lat="47.63465" lon="-3.20296">
        <ele>6.87</ele>
        <time>2020-08-10T08:48:03Z</time>
      </trkpt>
      <trkpt lat="47.63465" lon="-3.20297">
        <ele>8.31</ele>
        <time>2020-08-10T08:48:19Z</time>
      </trkpt>
      <trkpt lat="47.63465" lon="-3.20297">
        <ele>7.83</ele>
        <time>2020-08-10T08:48:25Z</time>
      </trkpt>
      <trkpt lat="47.63467" lon="-3.203">
        <ele>8.31</ele>
        <time>2020-08-10T08:48:28Z</time>
      </trkpt>
      <trkpt lat="47.63473" lon="-3.2031">
        <ele>7.83</ele>
        <time>2020-08-10T08:48:39Z</time>
      </trkpt>
      <trkpt lat="47.63483" lon="-3.20321">
        <ele>7.83</ele>
        <time>2020-08-10T08:48:54Z</time>
      </trkpt>
      <trkpt lat="47.63484" lon="-3.20321">
        <ele>8.31</ele>
        <time>2020-08-10T08:48:56Z</time>
      </trkpt>
      <trkpt lat="47.63486" lon="-3.20325">
        <ele>7.35</ele>
        <time>2020-08-10T08:49:00Z</time>
      </trkpt>
      <trkpt lat="47.63489" lon="-3.20327">
        <ele>7.83</ele>
        <time>2020-08-10T08:49:03Z</time>
      </trkpt>
      <trkpt lat="47.63495" lon="-3.20333">
        <ele>7.83</ele>
        <time>2020-08-10T08:49:11Z</time>
      </trkpt>
      <trkpt lat="47.635" lon="-3.2034">
        <ele>7.35</ele>
        <time>2020-08-10T08:49:18Z</time>
      </trkpt>
      <trkpt lat="47.63514" lon="-3.2035">
        <ele>7.83</ele>
        <time>2020-08-10T08:49:33Z</time>
      </trkpt>
      <trkpt lat="47.63526" lon="-3.20361">
        <ele>7.83</ele>
        <time>2020-08-10T08:49:47Z</time>
      </trkpt>
      <trkpt lat="47.63532" lon="-3.20368">
        <ele>7.35</ele>
        <time>2020-08-10T08:49:55Z</time>
      </trkpt>
      <trkpt lat="47.63541" lon="-3.20374">
        <ele>7.83</ele>
        <time>2020-08-10T08:50:06Z</time>
      </trkpt>
      <trkpt lat="47.63552" lon="-3.20382">
        <ele>7.35</ele>
        <time>2020-08-10T08:50:18Z</time>
      </trkpt>
      <trkpt lat="47.63556" lon="-3.20386">
        <ele>7.35</ele>
        <time>2020-08-10T08:50:23Z</time>
      </trkpt>
      <trkpt lat="47.63572" lon="-3.204">
        <ele>7.35</ele>
        <time>2020-08-10T08:50:41Z</time>
      </trkpt>
      <trkpt lat="47.63579" lon="-3.20407">
        <ele>7.83</ele>
        <time>2020-08-10T08:50:49Z</time>
      </trkpt>
      <trkpt lat="47.63581" lon="-3.20409">
        <ele>7.83</ele>
        <time>2020-08-10T08:50:52Z</time>
      </trkpt>
      <trkpt lat="47.63587" lon="-3.20415">
        <ele>7.35</ele>
        <time>2020-08-10T08:51:04Z</time>
      </trkpt>
      <trkpt lat="47.63598" lon="-3.20425">
        <ele>6.87</ele>
        <time>2020-08-10T08:51:17Z</time>
      </trkpt>
      <trkpt lat="47.63608" lon="-3.20439">
        <ele>6.87</ele>
        <time>2020-08-10T08:51:30Z</time>
      </trkpt>
      <trkpt lat="47.63622" lon="-3.20454">
        <ele>7.35</ele>
        <time>2020-08-10T08:51:47Z</time>
      </trkpt>
      <trkpt lat="47.63623" lon="-3.20454">
        <ele>7.35</ele>
        <time>2020-08-10T08:51:49Z</time>
      </trkpt>
      <trkpt lat="47.63627" lon="-3.20456">
        <ele>7.35</ele>
        <time>2020-08-10T08:51:53Z</time>
      </trkpt>
      <trkpt lat="47.6363" lon="-3.20461">
        <ele>7.83</ele>
        <time>2020-08-10T08:51:58Z</time>
      </trkpt>
      <trkpt lat="47.63634" lon="-3.20465">
        <ele>6.87</ele>
        <time>2020-08-10T08:52:03Z</time>
      </trkpt>
      <trkpt lat="47.63645" lon="-3.2048">
        <ele>6.87</ele>
        <time>2020-08-10T08:52:19Z</time>
      </trkpt>
      <trkpt lat="47.63657" lon="-3.20493">
        <ele>7.35</ele>
        <time>2020-08-10T08:52:34Z</time>
      </trkpt>
      <trkpt lat="47.6367" lon="-3.20508">
        <ele>7.35</ele>
        <time>2020-08-10T08:52:51Z</time>
      </trkpt>
      <trkpt lat="47.63678" lon="-3.20517">
        <ele>6.87</ele>
        <time>2020-08-10T08:53:04Z</time>
      </trkpt>
      <trkpt lat="47.63681" lon="-3.20523">
        <ele>6.87</ele>
        <time>2020-08-10T08:53:11Z</time>
      </trkpt>
      <trkpt lat="47.63691" lon="-3.20537">
        <ele>6.87</ele>
        <time>2020-08-10T08:53:27Z</time>
      </trkpt>
      <trkpt lat="47.63699" lon="-3.20546">
        <ele>6.39</ele>
        <time>2020-08-10T08:53:40Z</time>
      </trkpt>
      <trkpt lat="47.63707" lon="-3.20554">
        <ele>6.87</ele>
        <time>2020-08-10T08:53:53Z</time>
      </trkpt>
      <trkpt lat="47.63709" lon="-3.20557">
        <ele>6.87</ele>
        <time>2020-08-10T08:53:56Z</time>
      </trkpt>
      <trkpt lat="47.63712" lon="-3.2056">
        <ele>6.87</ele>
        <time>2020-08-10T08:53:59Z</time>
      </trkpt>
      <trkpt lat="47.63722" lon="-3.20578">
        <ele>6.87</ele>
        <time>2020-08-10T08:54:15Z</time>
      </trkpt>
      <trkpt lat="47.63725" lon="-3.20584">
        <ele>6.87</ele>
        <time>2020-08-10T08:54:20Z</time>
      </trkpt>
      <trkpt lat="47.63736" lon="-3.20603">
        <ele>6.87</ele>
        <time>2020-08-10T08:54:37Z</time>
      </trkpt>
      <trkpt lat="47.63737" lon="-3.20605">
        <ele>6.87</ele>
        <time>2020-08-10T08:54:39Z</time>
      </trkpt>
      <trkpt lat="47.63741" lon="-3.20612">
        <ele>6.87</ele>
        <time>2020-08-10T08:54:45Z</time>
      </trkpt>
      <trkpt lat="47.63749" lon="-3.20626">
        <ele>6.87</ele>
        <time>2020-08-10T08:54:59Z</time>
      </trkpt>
      <trkpt lat="47.63757" lon="-3.2064">
        <ele>6.39</ele>
        <time>2020-08-10T08:55:13Z</time>
      </trkpt>
      <trkpt lat="47.63765" lon="-3.20653">
        <ele>6.39</ele>
        <time>2020-08-10T08:55:26Z</time>
      </trkpt>
      <trkpt lat="47.6377" lon="-3.20663">
        <ele>6.39</ele>
        <time>2020-08-10T08:55:34Z</time>
      </trkpt>
      <trkpt lat="47.63772" lon="-3.20667">
        <ele>6.87</ele>
        <time>2020-08-10T08:55:37Z</time>
      </trkpt>
      <trkpt lat="47.63776" lon="-3.20673">
        <ele>6.87</ele>
        <time>2020-08-10T08:55:43Z</time>
      </trkpt>
      <trkpt lat="47.63778" lon="-3.20676">
        <ele>6.87</ele>
        <time>2020-08-10T08:55:56Z</time>
      </trkpt>
      <trkpt lat="47.63782" lon="-3.2068">
        <ele>6.39</ele>
        <time>2020-08-10T08:56:06Z</time>
      </trkpt>
      <trkpt lat="47.63789" lon="-3.20694">
        <ele>5.91</ele>
        <time>2020-08-10T08:56:19Z</time>
      </trkpt>
      <trkpt lat="47.6379" lon="-3.20697">
        <ele>6.39</ele>
        <time>2020-08-10T08:56:22Z</time>
      </trkpt>
      <trkpt lat="47.63793" lon="-3.20699">
        <ele>5.91</ele>
        <time>2020-08-10T08:56:29Z</time>
      </trkpt>
      <trkpt lat="47.63794" lon="-3.20702">
        <ele>6.39</ele>
        <time>2020-08-10T08:56:32Z</time>
      </trkpt>
      <trkpt lat="47.63803" lon="-3.20711">
        <ele>5.91</ele>
        <time>2020-08-10T08:56:45Z</time>
      </trkpt>
      <trkpt lat="47.63806" lon="-3.20713">
        <ele>6.39</ele>
        <time>2020-08-10T08:56:48Z</time>
      </trkpt>
      <trkpt lat="47.63812" lon="-3.20722">
        <ele>6.87</ele>
        <time>2020-08-10T08:57:00Z</time>
      </trkpt>
      <trkpt lat="47.63817" lon="-3.20729">
        <ele>6.39</ele>
        <time>2020-08-10T08:57:09Z</time>
      </trkpt>
      <trkpt lat="47.63819" lon="-3.20732">
        <ele>6.87</ele>
        <time>2020-08-10T08:57:12Z</time>
      </trkpt>
      <trkpt lat="47.63827" lon="-3.20745">
        <ele>6.39</ele>
        <time>2020-08-10T08:57:26Z</time>
      </trkpt>
      <trkpt lat="47.63828" lon="-3.20746">
        <ele>5.91</ele>
        <time>2020-08-10T08:57:28Z</time>
      </trkpt>
      <trkpt lat="47.63833" lon="-3.20754">
        <ele>6.39</ele>
        <time>2020-08-10T08:57:39Z</time>
      </trkpt>
      <trkpt lat="47.63841" lon="-3.20765">
        <ele>6.39</ele>
        <time>2020-08-10T08:57:53Z</time>
      </trkpt>
      <trkpt lat="47.63842" lon="-3.20766">
        <ele>6.39</ele>
        <time>2020-08-10T08:57:56Z</time>
      </trkpt>
      <trkpt lat="47.63848" lon="-3.20773">
        <ele>5.91</ele>
        <time>2020-08-10T08:58:04Z</time>
      </trkpt>
      <trkpt lat="47.63854" lon="-3.20781">
        <ele>5.91</ele>
        <time>2020-08-10T08:58:13Z</time>
      </trkpt>
      <trkpt lat="47.63855" lon="-3.20785">
        <ele>5.42</ele>
        <time>2020-08-10T08:58:16Z</time>
      </trkpt>
      <trkpt lat="47.63862" lon="-3.20795">
        <ele>5.91</ele>
        <time>2020-08-10T08:58:29Z</time>
      </trkpt>
      <trkpt lat="47.6387" lon="-3.20806">
        <ele>5.91</ele>
        <time>2020-08-10T08:58:42Z</time>
      </trkpt>
      <trkpt lat="47.63878" lon="-3.20818">
        <ele>5.42</ele>
        <time>2020-08-10T08:58:56Z</time>
      </trkpt>
      <trkpt lat="47.63882" lon="-3.20824">
        <ele>5.42</ele>
        <time>2020-08-10T08:59:03Z</time>
      </trkpt>
      <trkpt lat="47.63888" lon="-3.20837">
        <ele>5.42</ele>
        <time>2020-08-10T08:59:16Z</time>
      </trkpt>
      <trkpt lat="47.63894" lon="-3.20842">
        <ele>5.91</ele>
        <time>2020-08-10T08:59:26Z</time>
      </trkpt>
      <trkpt lat="47.63901" lon="-3.20849">
        <ele>6.39</ele>
        <time>2020-08-10T08:59:36Z</time>
      </trkpt>
      <trkpt lat="47.63909" lon="-3.2086">
        <ele>6.87</ele>
        <time>2020-08-10T08:59:49Z</time>
      </trkpt>
      <trkpt lat="47.63918" lon="-3.2087">
        <ele>6.87</ele>
        <time>2020-08-10T09:00:03Z</time>
      </trkpt>
      <trkpt lat="47.63928" lon="-3.20874">
        <ele>6.87</ele>
        <time>2020-08-10T09:00:18Z</time>
      </trkpt>
      <trkpt lat="47.63936" lon="-3.20879">
        <ele>7.35</ele>
        <time>2020-08-10T09:00:32Z</time>
      </trkpt>
      <trkpt lat="47.63943" lon="-3.20882">
        <ele>7.83</ele>
        <time>2020-08-10T09:00:44Z</time>
      </trkpt>
      <trkpt lat="47.63953" lon="-3.2089">
        <ele>7.35</ele>
        <time>2020-08-10T09:00:59Z</time>
      </trkpt>
      <trkpt lat="47.63964" lon="-3.20898">
        <ele>7.83</ele>
        <time>2020-08-10T09:01:15Z</time>
      </trkpt>
      <trkpt lat="47.63974" lon="-3.20905">
        <ele>7.83</ele>
        <time>2020-08-10T09:01:28Z</time>
      </trkpt>
      <trkpt lat="47.63984" lon="-3.20913">
        <ele>7.83</ele>
        <time>2020-08-10T09:01:42Z</time>
      </trkpt>
      <trkpt lat="47.63993" lon="-3.20922">
        <ele>7.83</ele>
        <time>2020-08-10T09:01:56Z</time>
      </trkpt>
      <trkpt lat="47.64003" lon="-3.20929">
        <ele>6.87</ele>
        <time>2020-08-10T09:02:09Z</time>
      </trkpt>
      <trkpt lat="47.64015" lon="-3.20937">
        <ele>7.35</ele>
        <time>2020-08-10T09:02:25Z</time>
      </trkpt>
      <trkpt lat="47.64017" lon="-3.20937">
        <ele>5.91</ele>
        <time>2020-08-10T09:02:39Z</time>
      </trkpt>
      <trkpt lat="47.64018" lon="-3.20939">
        <ele>6.39</ele>
        <time>2020-08-10T09:02:50Z</time>
      </trkpt>
      <trkpt lat="47.64019" lon="-3.20941">
        <ele>6.39</ele>
        <time>2020-08-10T09:03:12Z</time>
      </trkpt>
      <trkpt lat="47.64027" lon="-3.20948">
        <ele>5.91</ele>
        <time>2020-08-10T09:03:25Z</time>
      </trkpt>
      <trkpt lat="47.64037" lon="-3.20952">
        <ele>6.87</ele>
        <time>2020-08-10T09:03:39Z</time>
      </trkpt>
      <trkpt lat="47.64045" lon="-3.20957">
        <ele>5.91</ele>
        <time>2020-08-10T09:03:52Z</time>
      </trkpt>
      <trkpt lat="47.64047" lon="-3.20957">
        <ele>5.42</ele>
        <time>2020-08-10T09:04:05Z</time>
      </trkpt>
      <trkpt lat="47.64048" lon="-3.20957">
        <ele>6.39</ele>
        <time>2020-08-10T09:04:12Z</time>
      </trkpt>
      <trkpt lat="47.64052" lon="-3.20957">
        <ele>6.87</ele>
        <time>2020-08-10T09:04:15Z</time>
      </trkpt>
      <trkpt lat="47.64061" lon="-3.20962">
        <ele>6.39</ele>
        <time>2020-08-10T09:04:27Z</time>
      </trkpt>
      <trkpt lat="47.64071" lon="-3.20965">
        <ele>6.39</ele>
        <time>2020-08-10T09:04:40Z</time>
      </trkpt>
      <trkpt lat="47.64081" lon="-3.20963">
        <ele>6.39</ele>
        <time>2020-08-10T09:04:54Z</time>
      </trkpt>
      <trkpt lat="47.64083" lon="-3.20962">
        <ele>6.39</ele>
        <time>2020-08-10T09:04:56Z</time>
      </trkpt>
      <trkpt lat="47.64093" lon="-3.20965">
        <ele>6.87</ele>
        <time>2020-08-10T09:05:10Z</time>
      </trkpt>
      <trkpt lat="47.64103" lon="-3.20968">
        <ele>6.87</ele>
        <time>2020-08-10T09:05:23Z</time>
      </trkpt>
      <trkpt lat="47.64114" lon="-3.2097">
        <ele>6.87</ele>
        <time>2020-08-10T09:05:38Z</time>
      </trkpt>
      <trkpt lat="47.64119" lon="-3.2097">
        <ele>6.39</ele>
        <time>2020-08-10T09:05:50Z</time>
      </trkpt>
      <trkpt lat="47.64129" lon="-3.2097">
        <ele>6.39</ele>
        <time>2020-08-10T09:06:03Z</time>
      </trkpt>
      <trkpt lat="47.64133" lon="-3.20971">
        <ele>6.39</ele>
        <time>2020-08-10T09:06:08Z</time>
      </trkpt>
      <trkpt lat="47.64143" lon="-3.20976">
        <ele>5.91</ele>
        <time>2020-08-10T09:06:21Z</time>
      </trkpt>
      <trkpt lat="47.64144" lon="-3.20979">
        <ele>5.91</ele>
        <time>2020-08-10T09:06:24Z</time>
      </trkpt>
      <trkpt lat="47.64145" lon="-3.20981">
        <ele>5.42</ele>
        <time>2020-08-10T09:06:26Z</time>
      </trkpt>
      <trkpt lat="47.64148" lon="-3.20984">
        <ele>4.94</ele>
        <time>2020-08-10T09:06:30Z</time>
      </trkpt>
      <trkpt lat="47.6416" lon="-3.20985">
        <ele>5.42</ele>
        <time>2020-08-10T09:06:45Z</time>
      </trkpt>
      <trkpt lat="47.64166" lon="-3.20973">
        <ele>5.91</ele>
        <time>2020-08-10T09:06:58Z</time>
      </trkpt>
      <trkpt lat="47.64177" lon="-3.20965">
        <ele>6.39</ele>
        <time>2020-08-10T09:07:12Z</time>
      </trkpt>
      <trkpt lat="47.64186" lon="-3.2096">
        <ele>6.39</ele>
        <time>2020-08-10T09:07:26Z</time>
      </trkpt>
      <trkpt lat="47.64195" lon="-3.20958">
        <ele>5.42</ele>
        <time>2020-08-10T09:07:38Z</time>
      </trkpt>
      <trkpt lat="47.642" lon="-3.20956">
        <ele>5.91</ele>
        <time>2020-08-10T09:07:52Z</time>
      </trkpt>
      <trkpt lat="47.64208" lon="-3.20954">
        <ele>5.42</ele>
        <time>2020-08-10T09:08:04Z</time>
      </trkpt>
      <trkpt lat="47.64214" lon="-3.20953">
        <ele>5.91</ele>
        <time>2020-08-10T09:08:10Z</time>
      </trkpt>
      <trkpt lat="47.64224" lon="-3.2095">
        <ele>6.39</ele>
        <time>2020-08-10T09:08:24Z</time>
      </trkpt>
      <trkpt lat="47.64233" lon="-3.20946">
        <ele>5.91</ele>
        <time>2020-08-10T09:08:36Z</time>
      </trkpt>
      <trkpt lat="47.64243" lon="-3.20948">
        <ele>5.91</ele>
        <time>2020-08-10T09:08:49Z</time>
      </trkpt>
      <trkpt lat="47.64254" lon="-3.20944">
        <ele>5.91</ele>
        <time>2020-08-10T09:09:03Z</time>
      </trkpt>
      <trkpt lat="47.64265" lon="-3.20943">
        <ele>5.91</ele>
        <time>2020-08-10T09:09:18Z</time>
      </trkpt>
      <trkpt lat="47.64266" lon="-3.20943">
        <ele>5.91</ele>
        <time>2020-08-10T09:09:19Z</time>
      </trkpt>
      <trkpt lat="47.64273" lon="-3.20945">
        <ele>5.42</ele>
        <time>2020-08-10T09:09:31Z</time>
      </trkpt>
      <trkpt lat="47.6428" lon="-3.20944">
        <ele>5.42</ele>
        <time>2020-08-10T09:09:38Z</time>
      </trkpt>
      <trkpt lat="47.64281" lon="-3.20942">
        <ele>5.42</ele>
        <time>2020-08-10T09:09:40Z</time>
      </trkpt>
      <trkpt lat="47.64284" lon="-3.20941">
        <ele>5.42</ele>
        <time>2020-08-10T09:09:43Z</time>
      </trkpt>
      <trkpt lat="47.64296" lon="-3.20942">
        <ele>6.39</ele>
        <time>2020-08-10T09:09:58Z</time>
      </trkpt>
      <trkpt lat="47.64305" lon="-3.20947">
        <ele>5.42</ele>
        <time>2020-08-10T09:10:12Z</time>
      </trkpt>
      <trkpt lat="47.64313" lon="-3.20947">
        <ele>5.91</ele>
        <time>2020-08-10T09:10:24Z</time>
      </trkpt>
      <trkpt lat="47.64322" lon="-3.20949">
        <ele>6.39</ele>
        <time>2020-08-10T09:10:36Z</time>
      </trkpt>
      <trkpt lat="47.64329" lon="-3.20946">
        <ele>6.39</ele>
        <time>2020-08-10T09:10:50Z</time>
      </trkpt>
      <trkpt lat="47.64333" lon="-3.2094">
        <ele>8.31</ele>
        <time>2020-08-10T09:11:02Z</time>
      </trkpt>
      <trkpt lat="47.64337" lon="-3.20938">
        <ele>8.31</ele>
        <time>2020-08-10T09:11:14Z</time>
      </trkpt>
      <trkpt lat="47.64337" lon="-3.20938">
        <ele>7.83</ele>
        <time>2020-08-10T09:11:36Z</time>
      </trkpt>
      <trkpt lat="47.64338" lon="-3.20938">
        <ele>7.83</ele>
        <time>2020-08-10T09:11:56Z</time>
      </trkpt>
      <trkpt lat="47.64338" lon="-3.20938">
        <ele>8.31</ele>
        <time>2020-08-10T09:12:13Z</time>
      </trkpt>
      <trkpt lat="47.64338" lon="-3.20938">
        <ele>8.31</ele>
        <time>2020-08-10T09:12:26Z</time>
      </trkpt>
      <trkpt lat="47.64338" lon="-3.20939">
        <ele>8.31</ele>
        <time>2020-08-10T09:12:36Z</time>
      </trkpt>
      <trkpt lat="47.64338" lon="-3.20939">
        <ele>8.31</ele>
        <time>2020-08-10T09:13:04Z</time>
      </trkpt>
      <trkpt lat="47.64339" lon="-3.20939">
        <ele>7.83</ele>
        <time>2020-08-10T09:13:19Z</time>
      </trkpt>
      <trkpt lat="47.64339" lon="-3.20939">
        <ele>7.83</ele>
        <time>2020-08-10T09:13:40Z</time>
      </trkpt>
      <trkpt lat="47.6434" lon="-3.20939">
        <ele>8.31</ele>
        <time>2020-08-10T09:13:56Z</time>
      </trkpt>
      <trkpt lat="47.64339" lon="-3.20939">
        <ele>8.31</ele>
        <time>2020-08-10T09:14:17Z</time>
      </trkpt>
      <trkpt lat="47.64339" lon="-3.20939">
        <ele>8.79</ele>
        <time>2020-08-10T09:14:43Z</time>
      </trkpt>
      <trkpt lat="47.6434" lon="-3.20939">
        <ele>8.79</ele>
        <time>2020-08-10T09:15:06Z</time>
      </trkpt>
      <trkpt lat="47.64339" lon="-3.20939">
        <ele>8.31</ele>
        <time>2020-08-10T09:15:31Z</time>
      </trkpt>
      <trkpt lat="47.64339" lon="-3.20939">
        <ele>8.79</ele>
        <time>2020-08-10T09:16:01Z</time>
      </trkpt>
      <trkpt lat="47.64339" lon="-3.20939">
        <ele>8.79</ele>
        <time>2020-08-10T09:16:20Z</time>
      </trkpt>
      <trkpt lat="47.64339" lon="-3.20939">
        <ele>8.31</ele>
        <time>2020-08-10T09:16:54Z</time>
      </trkpt>
      <trkpt lat="47.64339" lon="-3.20939">
        <ele>8.79</ele>
        <time>2020-08-10T09:17:26Z</time>
      </trkpt>
      <trkpt lat="47.64338" lon="-3.20932">
        <ele>8.31</ele>
        <time>2020-08-10T09:17:44Z</time>
      </trkpt>
      <trkpt lat="47.64336" lon="-3.20918">
        <ele>7.83</ele>
        <time>2020-08-10T09:17:56Z</time>
      </trkpt>
      <trkpt lat="47.64333" lon="-3.20902">
        <ele>8.31</ele>
        <time>2020-08-10T09:18:10Z</time>
      </trkpt>
      <trkpt lat="47.64331" lon="-3.20889">
        <ele>8.31</ele>
        <time>2020-08-10T09:18:22Z</time>
      </trkpt>
      <trkpt lat="47.64333" lon="-3.20883">
        <ele>7.83</ele>
        <time>2020-08-10T09:18:28Z</time>
      </trkpt>
      <trkpt lat="47.64337" lon="-3.20868">
        <ele>7.83</ele>
        <time>2020-08-10T09:18:42Z</time>
      </trkpt>
      <trkpt lat="47.64337" lon="-3.20862">
        <ele>7.83</ele>
        <time>2020-08-10T09:18:56Z</time>
      </trkpt>
      <trkpt lat="47.64336" lon="-3.20862">
        <ele>7.35</ele>
        <time>2020-08-10T09:18:57Z</time>
      </trkpt>
      <trkpt lat="47.64334" lon="-3.20856">
        <ele>7.35</ele>
        <time>2020-08-10T09:19:02Z</time>
      </trkpt>
      <trkpt lat="47.6434" lon="-3.20835">
        <ele>7.83</ele>
        <time>2020-08-10T09:19:19Z</time>
      </trkpt>
      <trkpt lat="47.64341" lon="-3.20829">
        <ele>7.35</ele>
        <time>2020-08-10T09:19:23Z</time>
      </trkpt>
      <trkpt lat="47.64344" lon="-3.20819">
        <ele>7.35</ele>
        <time>2020-08-10T09:19:34Z</time>
      </trkpt>
      <trkpt lat="47.64345" lon="-3.20813">
        <ele>7.35</ele>
        <time>2020-08-10T09:19:39Z</time>
      </trkpt>
      <trkpt lat="47.64353" lon="-3.20801">
        <ele>7.35</ele>
        <time>2020-08-10T09:19:54Z</time>
      </trkpt>
      <trkpt lat="47.64354" lon="-3.208">
        <ele>7.83</ele>
        <time>2020-08-10T09:20:07Z</time>
      </trkpt>
      <trkpt lat="47.64354" lon="-3.20799">
        <ele>7.35</ele>
        <time>2020-08-10T09:20:15Z</time>
      </trkpt>
      <trkpt lat="47.64356" lon="-3.20796">
        <ele>7.35</ele>
        <time>2020-08-10T09:20:18Z</time>
      </trkpt>
      <trkpt lat="47.64367" lon="-3.20782">
        <ele>7.35</ele>
        <time>2020-08-10T09:20:31Z</time>
      </trkpt>
      <trkpt lat="47.64375" lon="-3.20764">
        <ele>7.35</ele>
        <time>2020-08-10T09:20:44Z</time>
      </trkpt>
      <trkpt lat="47.64384" lon="-3.20744">
        <ele>7.35</ele>
        <time>2020-08-10T09:20:59Z</time>
      </trkpt>
      <trkpt lat="47.64387" lon="-3.20738">
        <ele>7.35</ele>
        <time>2020-08-10T09:21:03Z</time>
      </trkpt>
      <trkpt lat="47.64398" lon="-3.2072">
        <ele>7.35</ele>
        <time>2020-08-10T09:21:19Z</time>
      </trkpt>
      <trkpt lat="47.64408" lon="-3.20701">
        <ele>7.83</ele>
        <time>2020-08-10T09:21:34Z</time>
      </trkpt>
      <trkpt lat="47.64407" lon="-3.20697">
        <ele>7.35</ele>
        <time>2020-08-10T09:21:38Z</time>
      </trkpt>
      <trkpt lat="47.64404" lon="-3.20699">
        <ele>7.35</ele>
        <time>2020-08-10T09:21:41Z</time>
      </trkpt>
      <trkpt lat="47.64387" lon="-3.20696">
        <ele>7.35</ele>
        <time>2020-08-10T09:21:58Z</time>
      </trkpt>
      <trkpt lat="47.6438" lon="-3.20694">
        <ele>7.35</ele>
        <time>2020-08-10T09:22:11Z</time>
      </trkpt>
      <trkpt lat="47.6438" lon="-3.20694">
        <ele>6.87</ele>
        <time>2020-08-10T09:22:37Z</time>
      </trkpt>
      <trkpt lat="47.64379" lon="-3.20695">
        <ele>7.35</ele>
        <time>2020-08-10T09:23:05Z</time>
      </trkpt>
      <trkpt lat="47.64379" lon="-3.20695">
        <ele>6.87</ele>
        <time>2020-08-10T09:23:39Z</time>
      </trkpt>
      <trkpt lat="47.64379" lon="-3.20695">
        <ele>7.35</ele>
        <time>2020-08-10T09:23:59Z</time>
      </trkpt>
      <trkpt lat="47.64379" lon="-3.20694">
        <ele>8.31</ele>
        <time>2020-08-10T09:24:26Z</time>
      </trkpt>
      <trkpt lat="47.64377" lon="-3.20693">
        <ele>8.31</ele>
        <time>2020-08-10T09:24:33Z</time>
      </trkpt>
      <trkpt lat="47.64372" lon="-3.20689">
        <ele>7.83</ele>
        <time>2020-08-10T09:24:39Z</time>
      </trkpt>
      <trkpt lat="47.64359" lon="-3.20674">
        <ele>7.83</ele>
        <time>2020-08-10T09:24:55Z</time>
      </trkpt>
      <trkpt lat="47.64348" lon="-3.20663">
        <ele>8.79</ele>
        <time>2020-08-10T09:25:08Z</time>
      </trkpt>
      <trkpt lat="47.6433" lon="-3.20661">
        <ele>8.31</ele>
        <time>2020-08-10T09:25:25Z</time>
      </trkpt>
      <trkpt lat="47.64314" lon="-3.20663">
        <ele>7.83</ele>
        <time>2020-08-10T09:25:40Z</time>
      </trkpt>
      <trkpt lat="47.64297" lon="-3.20659">
        <ele>7.83</ele>
        <time>2020-08-10T09:25:56Z</time>
      </trkpt>
      <trkpt lat="47.64279" lon="-3.20653">
        <ele>7.83</ele>
        <time>2020-08-10T09:26:12Z</time>
      </trkpt>
      <trkpt lat="47.64261" lon="-3.20648">
        <ele>8.31</ele>
        <time>2020-08-10T09:26:27Z</time>
      </trkpt>
      <trkpt lat="47.64255" lon="-3.20647">
        <ele>8.31</ele>
        <time>2020-08-10T09:26:34Z</time>
      </trkpt>
      <trkpt lat="47.64251" lon="-3.20645">
        <ele>8.31</ele>
        <time>2020-08-10T09:26:38Z</time>
      </trkpt>
      <trkpt lat="47.64237" lon="-3.20647">
        <ele>7.83</ele>
        <time>2020-08-10T09:26:51Z</time>
      </trkpt>
      <trkpt lat="47.6423" lon="-3.20648">
        <ele>8.31</ele>
        <time>2020-08-10T09:27:03Z</time>
      </trkpt>
      <trkpt lat="47.64223" lon="-3.20649">
        <ele>8.31</ele>
        <time>2020-08-10T09:27:10Z</time>
      </trkpt>
      <trkpt lat="47.64218" lon="-3.2065">
        <ele>8.79</ele>
        <time>2020-08-10T09:27:14Z</time>
      </trkpt>
      <trkpt lat="47.6421" lon="-3.20651">
        <ele>8.79</ele>
        <time>2020-08-10T09:27:22Z</time>
      </trkpt>
      <trkpt lat="47.64201" lon="-3.20651">
        <ele>8.79</ele>
        <time>2020-08-10T09:27:30Z</time>
      </trkpt>
      <trkpt lat="47.64182" lon="-3.20651">
        <ele>8.79</ele>
        <time>2020-08-10T09:27:48Z</time>
      </trkpt>
      <trkpt lat="47.6418" lon="-3.20651">
        <ele>9.27</ele>
        <time>2020-08-10T09:27:50Z</time>
      </trkpt>
      <trkpt lat="47.64178" lon="-3.2065">
        <ele>9.27</ele>
        <time>2020-08-10T09:27:53Z</time>
      </trkpt>
      <trkpt lat="47.64174" lon="-3.20651">
        <ele>8.79</ele>
        <time>2020-08-10T09:27:57Z</time>
      </trkpt>
      <trkpt lat="47.64165" lon="-3.20651">
        <ele>9.27</ele>
        <time>2020-08-10T09:28:05Z</time>
      </trkpt>
      <trkpt lat="47.64147" lon="-3.20651">
        <ele>9.27</ele>
        <time>2020-08-10T09:28:22Z</time>
      </trkpt>
      <trkpt lat="47.64134" lon="-3.20652">
        <ele>9.27</ele>
        <time>2020-08-10T09:28:34Z</time>
      </trkpt>
      <trkpt lat="47.64119" lon="-3.20654">
        <ele>9.27</ele>
        <time>2020-08-10T09:28:48Z</time>
      </trkpt>
      <trkpt lat="47.64101" lon="-3.20653">
        <ele>9.75</ele>
        <time>2020-08-10T09:29:04Z</time>
      </trkpt>
      <trkpt lat="47.64083" lon="-3.20651">
        <ele>10.23</ele>
        <time>2020-08-10T09:29:21Z</time>
      </trkpt>
      <trkpt lat="47.64075" lon="-3.2065">
        <ele>10.23</ele>
        <time>2020-08-10T09:29:28Z</time>
      </trkpt>
      <trkpt lat="47.64066" lon="-3.20648">
        <ele>10.23</ele>
        <time>2020-08-10T09:29:37Z</time>
      </trkpt>
      <trkpt lat="47.64061" lon="-3.20644">
        <ele>10.23</ele>
        <time>2020-08-10T09:29:43Z</time>
      </trkpt>
      <trkpt lat="47.64045" lon="-3.20641">
        <ele>10.23</ele>
        <time>2020-08-10T09:29:58Z</time>
      </trkpt>
      <trkpt lat="47.6404" lon="-3.20638">
        <ele>10.71</ele>
        <time>2020-08-10T09:30:04Z</time>
      </trkpt>
      <trkpt lat="47.64025" lon="-3.20639">
        <ele>11.19</ele>
        <time>2020-08-10T09:30:18Z</time>
      </trkpt>
      <trkpt lat="47.64011" lon="-3.20641">
        <ele>11.19</ele>
        <time>2020-08-10T09:30:33Z</time>
      </trkpt>
      <trkpt lat="47.64002" lon="-3.2064">
        <ele>11.19</ele>
        <time>2020-08-10T09:30:43Z</time>
      </trkpt>
      <trkpt lat="47.63992" lon="-3.20635">
        <ele>12.15</ele>
        <time>2020-08-10T09:30:55Z</time>
      </trkpt>
      <trkpt lat="47.63978" lon="-3.20633">
        <ele>11.19</ele>
        <time>2020-08-10T09:31:10Z</time>
      </trkpt>
      <trkpt lat="47.63975" lon="-3.20633">
        <ele>10.71</ele>
        <time>2020-08-10T09:31:13Z</time>
      </trkpt>
      <trkpt lat="47.6396" lon="-3.20626">
        <ele>10.23</ele>
        <time>2020-08-10T09:31:28Z</time>
      </trkpt>
      <trkpt lat="47.63947" lon="-3.2062">
        <ele>10.23</ele>
        <time>2020-08-10T09:31:41Z</time>
      </trkpt>
      <trkpt lat="47.6394" lon="-3.20615">
        <ele>10.23</ele>
        <time>2020-08-10T09:31:48Z</time>
      </trkpt>
      <trkpt lat="47.63922" lon="-3.20609">
        <ele>10.71</ele>
        <time>2020-08-10T09:32:05Z</time>
      </trkpt>
      <trkpt lat="47.63906" lon="-3.20605">
        <ele>10.71</ele>
        <time>2020-08-10T09:32:20Z</time>
      </trkpt>
      <trkpt lat="47.639" lon="-3.20603">
        <ele>10.71</ele>
        <time>2020-08-10T09:32:26Z</time>
      </trkpt>
      <trkpt lat="47.63886" lon="-3.20593">
        <ele>11.67</ele>
        <time>2020-08-10T09:32:42Z</time>
      </trkpt>
      <trkpt lat="47.63877" lon="-3.20581">
        <ele>11.67</ele>
        <time>2020-08-10T09:32:57Z</time>
      </trkpt>
      <trkpt lat="47.63871" lon="-3.20583">
        <ele>11.19</ele>
        <time>2020-08-10T09:33:04Z</time>
      </trkpt>
      <trkpt lat="47.63855" lon="-3.20583">
        <ele>11.67</ele>
        <time>2020-08-10T09:33:20Z</time>
      </trkpt>
      <trkpt lat="47.63844" lon="-3.20586">
        <ele>10.71</ele>
        <time>2020-08-10T09:33:34Z</time>
      </trkpt>
      <trkpt lat="47.63836" lon="-3.20588">
        <ele>10.71</ele>
        <time>2020-08-10T09:33:46Z</time>
      </trkpt>
      <trkpt lat="47.63828" lon="-3.20588">
        <ele>9.75</ele>
        <time>2020-08-10T09:33:57Z</time>
      </trkpt>
      <trkpt lat="47.63821" lon="-3.20579">
        <ele>10.23</ele>
        <time>2020-08-10T09:34:09Z</time>
      </trkpt>
      <trkpt lat="47.63818" lon="-3.20575">
        <ele>10.23</ele>
        <time>2020-08-10T09:34:14Z</time>
      </trkpt>
      <trkpt lat="47.63808" lon="-3.20561">
        <ele>10.23</ele>
        <time>2020-08-10T09:34:29Z</time>
      </trkpt>
      <trkpt lat="47.63799" lon="-3.20551">
        <ele>9.75</ele>
        <time>2020-08-10T09:34:43Z</time>
      </trkpt>
      <trkpt lat="47.63789" lon="-3.20537">
        <ele>10.23</ele>
        <time>2020-08-10T09:34:59Z</time>
      </trkpt>
      <trkpt lat="47.63782" lon="-3.20526">
        <ele>10.71</ele>
        <time>2020-08-10T09:35:13Z</time>
      </trkpt>
      <trkpt lat="47.63773" lon="-3.20514">
        <ele>10.23</ele>
        <time>2020-08-10T09:35:26Z</time>
      </trkpt>
      <trkpt lat="47.63772" lon="-3.20511">
        <ele>9.75</ele>
        <time>2020-08-10T09:35:29Z</time>
      </trkpt>
      <trkpt lat="47.63767" lon="-3.20507">
        <ele>10.23</ele>
        <time>2020-08-10T09:35:35Z</time>
      </trkpt>
      <trkpt lat="47.63763" lon="-3.20501">
        <ele>10.23</ele>
        <time>2020-08-10T09:35:42Z</time>
      </trkpt>
      <trkpt lat="47.63754" lon="-3.20488">
        <ele>10.23</ele>
        <time>2020-08-10T09:35:57Z</time>
      </trkpt>
      <trkpt lat="47.63748" lon="-3.20477">
        <ele>10.23</ele>
        <time>2020-08-10T09:36:10Z</time>
      </trkpt>
      <trkpt lat="47.6374" lon="-3.20466">
        <ele>11.19</ele>
        <time>2020-08-10T09:36:23Z</time>
      </trkpt>
      <trkpt lat="47.63737" lon="-3.20462">
        <ele>10.23</ele>
        <time>2020-08-10T09:36:29Z</time>
      </trkpt>
      <trkpt lat="47.63734" lon="-3.20458">
        <ele>10.71</ele>
        <time>2020-08-10T09:36:33Z</time>
      </trkpt>
      <trkpt lat="47.63726" lon="-3.20445">
        <ele>10.71</ele>
        <time>2020-08-10T09:36:49Z</time>
      </trkpt>
      <trkpt lat="47.63719" lon="-3.20437">
        <ele>11.19</ele>
        <time>2020-08-10T09:37:02Z</time>
      </trkpt>
      <trkpt lat="47.63717" lon="-3.20435">
        <ele>10.71</ele>
        <time>2020-08-10T09:37:15Z</time>
      </trkpt>
      <trkpt lat="47.6371" lon="-3.20425">
        <ele>10.23</ele>
        <time>2020-08-10T09:37:28Z</time>
      </trkpt>
      <trkpt lat="47.63702" lon="-3.20414">
        <ele>10.23</ele>
        <time>2020-08-10T09:37:43Z</time>
      </trkpt>
      <trkpt lat="47.637" lon="-3.20407">
        <ele>10.71</ele>
        <time>2020-08-10T09:37:50Z</time>
      </trkpt>
      <trkpt lat="47.63702" lon="-3.20394">
        <ele>11.67</ele>
        <time>2020-08-10T09:38:04Z</time>
      </trkpt>
      <trkpt lat="47.63702" lon="-3.20393">
        <ele>11.67</ele>
        <time>2020-08-10T09:38:05Z</time>
      </trkpt>
      <trkpt lat="47.63703" lon="-3.20391">
        <ele>11.67</ele>
        <time>2020-08-10T09:38:07Z</time>
      </trkpt>
      <trkpt lat="47.63706" lon="-3.20387">
        <ele>12.15</ele>
        <time>2020-08-10T09:38:12Z</time>
      </trkpt>
      <trkpt lat="47.63717" lon="-3.20378">
        <ele>11.19</ele>
        <time>2020-08-10T09:38:27Z</time>
      </trkpt>
      <trkpt lat="47.63718" lon="-3.20377">
        <ele>10.71</ele>
        <time>2020-08-10T09:38:28Z</time>
      </trkpt>
      <trkpt lat="47.63723" lon="-3.20373">
        <ele>10.71</ele>
        <time>2020-08-10T09:38:35Z</time>
      </trkpt>
      <trkpt lat="47.63729" lon="-3.20365">
        <ele>9.75</ele>
        <time>2020-08-10T09:38:44Z</time>
      </trkpt>
      <trkpt lat="47.63735" lon="-3.20351">
        <ele>9.27</ele>
        <time>2020-08-10T09:38:57Z</time>
      </trkpt>
      <trkpt lat="47.63727" lon="-3.20343">
        <ele>8.79</ele>
        <time>2020-08-10T09:39:11Z</time>
      </trkpt>
      <trkpt lat="47.63725" lon="-3.20344">
        <ele>8.31</ele>
        <time>2020-08-10T09:39:16Z</time>
      </trkpt>
      <trkpt lat="47.63717" lon="-3.20343">
        <ele>8.31</ele>
        <time>2020-08-10T09:39:23Z</time>
      </trkpt>
      <trkpt lat="47.63715" lon="-3.20342">
        <ele>8.31</ele>
        <time>2020-08-10T09:39:27Z</time>
      </trkpt>
      <trkpt lat="47.63707" lon="-3.20341">
        <ele>7.83</ele>
        <time>2020-08-10T09:39:35Z</time>
      </trkpt>
      <trkpt lat="47.63696" lon="-3.20334">
        <ele>8.31</ele>
        <time>2020-08-10T09:39:47Z</time>
      </trkpt>
      <trkpt lat="47.63685" lon="-3.20322">
        <ele>7.83</ele>
        <time>2020-08-10T09:39:59Z</time>
      </trkpt>
      <trkpt lat="47.63668" lon="-3.20303">
        <ele>8.31</ele>
        <time>2020-08-10T09:40:17Z</time>
      </trkpt>
      <trkpt lat="47.63656" lon="-3.20295">
        <ele>8.31</ele>
        <time>2020-08-10T09:40:30Z</time>
      </trkpt>
      <trkpt lat="47.63652" lon="-3.20289">
        <ele>8.31</ele>
        <time>2020-08-10T09:40:35Z</time>
      </trkpt>
      <trkpt lat="47.63648" lon="-3.20286">
        <ele>8.31</ele>
        <time>2020-08-10T09:40:39Z</time>
      </trkpt>
      <trkpt lat="47.63644" lon="-3.20284">
        <ele>7.83</ele>
        <time>2020-08-10T09:40:43Z</time>
      </trkpt>
      <trkpt lat="47.63625" lon="-3.20269">
        <ele>8.31</ele>
        <time>2020-08-10T09:41:02Z</time>
      </trkpt>
      <trkpt lat="47.63614" lon="-3.20259">
        <ele>8.31</ele>
        <time>2020-08-10T09:41:14Z</time>
      </trkpt>
      <trkpt lat="47.63608" lon="-3.20254">
        <ele>8.31</ele>
        <time>2020-08-10T09:41:20Z</time>
      </trkpt>
      <trkpt lat="47.63596" lon="-3.20245">
        <ele>8.31</ele>
        <time>2020-08-10T09:41:33Z</time>
      </trkpt>
      <trkpt lat="47.63577" lon="-3.20228">
        <ele>7.83</ele>
        <time>2020-08-10T09:41:51Z</time>
      </trkpt>
      <trkpt lat="47.63564" lon="-3.20218">
        <ele>7.35</ele>
        <time>2020-08-10T09:42:04Z</time>
      </trkpt>
      <trkpt lat="47.63548" lon="-3.20205">
        <ele>6.87</ele>
        <time>2020-08-10T09:42:19Z</time>
      </trkpt>
      <trkpt lat="47.6353" lon="-3.20192">
        <ele>7.35</ele>
        <time>2020-08-10T09:42:36Z</time>
      </trkpt>
      <trkpt lat="47.63517" lon="-3.20181">
        <ele>8.31</ele>
        <time>2020-08-10T09:42:49Z</time>
      </trkpt>
      <trkpt lat="47.63503" lon="-3.20169">
        <ele>7.83</ele>
        <time>2020-08-10T09:43:04Z</time>
      </trkpt>
      <trkpt lat="47.63499" lon="-3.20166">
        <ele>8.31</ele>
        <time>2020-08-10T09:43:09Z</time>
      </trkpt>
      <trkpt lat="47.63487" lon="-3.20156">
        <ele>8.31</ele>
        <time>2020-08-10T09:43:22Z</time>
      </trkpt>
      <trkpt lat="47.63475" lon="-3.20147">
        <ele>8.79</ele>
        <time>2020-08-10T09:43:33Z</time>
      </trkpt>
      <trkpt lat="47.63457" lon="-3.20132">
        <ele>8.79</ele>
        <time>2020-08-10T09:43:51Z</time>
      </trkpt>
      <trkpt lat="47.63443" lon="-3.20119">
        <ele>8.79</ele>
        <time>2020-08-10T09:44:08Z</time>
      </trkpt>
      <trkpt lat="47.63434" lon="-3.20111">
        <ele>8.79</ele>
        <time>2020-08-10T09:44:17Z</time>
      </trkpt>
      <trkpt lat="47.63414" lon="-3.20094">
        <ele>8.79</ele>
        <time>2020-08-10T09:44:36Z</time>
      </trkpt>
      <trkpt lat="47.63399" lon="-3.20079">
        <ele>8.31</ele>
        <time>2020-08-10T09:44:52Z</time>
      </trkpt>
      <trkpt lat="47.63388" lon="-3.20064">
        <ele>8.31</ele>
        <time>2020-08-10T09:45:05Z</time>
      </trkpt>
      <trkpt lat="47.63377" lon="-3.2005">
        <ele>8.79</ele>
        <time>2020-08-10T09:45:18Z</time>
      </trkpt>
      <trkpt lat="47.63369" lon="-3.20042">
        <ele>8.79</ele>
        <time>2020-08-10T09:45:27Z</time>
      </trkpt>
      <trkpt lat="47.63363" lon="-3.20041">
        <ele>9.27</ele>
        <time>2020-08-10T09:45:32Z</time>
      </trkpt>
      <trkpt lat="47.63358" lon="-3.20043">
        <ele>9.27</ele>
        <time>2020-08-10T09:45:37Z</time>
      </trkpt>
      <trkpt lat="47.63349" lon="-3.20045">
        <ele>9.27</ele>
        <time>2020-08-10T09:45:46Z</time>
      </trkpt>
      <trkpt lat="47.63343" lon="-3.20043">
        <ele>8.79</ele>
        <time>2020-08-10T09:45:52Z</time>
      </trkpt>
      <trkpt lat="47.63325" lon="-3.2004">
        <ele>9.27</ele>
        <time>2020-08-10T09:46:08Z</time>
      </trkpt>
      <trkpt lat="47.63311" lon="-3.20026">
        <ele>9.27</ele>
        <time>2020-08-10T09:46:23Z</time>
      </trkpt>
      <trkpt lat="47.63297" lon="-3.2001">
        <ele>8.79</ele>
        <time>2020-08-10T09:46:38Z</time>
      </trkpt>
      <trkpt lat="47.63285" lon="-3.19993">
        <ele>9.27</ele>
        <time>2020-08-10T09:46:52Z</time>
      </trkpt>
      <trkpt lat="47.6328" lon="-3.19985">
        <ele>9.27</ele>
        <time>2020-08-10T09:46:58Z</time>
      </trkpt>
      <trkpt lat="47.63276" lon="-3.1998">
        <ele>10.23</ele>
        <time>2020-08-10T09:47:03Z</time>
      </trkpt>
      <trkpt lat="47.63271" lon="-3.19971">
        <ele>10.71</ele>
        <time>2020-08-10T09:47:10Z</time>
      </trkpt>
      <trkpt lat="47.63266" lon="-3.19964">
        <ele>11.19</ele>
        <time>2020-08-10T09:47:16Z</time>
      </trkpt>
      <trkpt lat="47.63261" lon="-3.19955">
        <ele>10.71</ele>
        <time>2020-08-10T09:47:23Z</time>
      </trkpt>
      <trkpt lat="47.63256" lon="-3.1995">
        <ele>10.23</ele>
        <time>2020-08-10T09:47:28Z</time>
      </trkpt>
      <trkpt lat="47.6325" lon="-3.1994">
        <ele>9.75</ele>
        <time>2020-08-10T09:47:36Z</time>
      </trkpt>
      <trkpt lat="47.63237" lon="-3.19927">
        <ele>8.79</ele>
        <time>2020-08-10T09:47:50Z</time>
      </trkpt>
      <trkpt lat="47.63234" lon="-3.19927">
        <ele>7.83</ele>
        <time>2020-08-10T09:47:53Z</time>
      </trkpt>
      <trkpt lat="47.63229" lon="-3.19921">
        <ele>8.31</ele>
        <time>2020-08-10T09:47:59Z</time>
      </trkpt>
      <trkpt lat="47.6321" lon="-3.19903">
        <ele>8.31</ele>
        <time>2020-08-10T09:48:18Z</time>
      </trkpt>
      <trkpt lat="47.63194" lon="-3.1989">
        <ele>8.31</ele>
        <time>2020-08-10T09:48:34Z</time>
      </trkpt>
      <trkpt lat="47.63192" lon="-3.19888">
        <ele>7.83</ele>
        <time>2020-08-10T09:48:36Z</time>
      </trkpt>
      <trkpt lat="47.63177" lon="-3.19877">
        <ele>8.31</ele>
        <time>2020-08-10T09:48:50Z</time>
      </trkpt>
      <trkpt lat="47.6316" lon="-3.19864">
        <ele>8.31</ele>
        <time>2020-08-10T09:49:08Z</time>
      </trkpt>
      <trkpt lat="47.63142" lon="-3.19848">
        <ele>7.83</ele>
        <time>2020-08-10T09:49:26Z</time>
      </trkpt>
      <trkpt lat="47.63124" lon="-3.19833">
        <ele>8.31</ele>
        <time>2020-08-10T09:49:43Z</time>
      </trkpt>
      <trkpt lat="47.63123" lon="-3.19833">
        <ele>8.31</ele>
        <time>2020-08-10T09:49:45Z</time>
      </trkpt>
      <trkpt lat="47.6312" lon="-3.19831">
        <ele>8.31</ele>
        <time>2020-08-10T09:49:48Z</time>
      </trkpt>
      <trkpt lat="47.63103" lon="-3.19821">
        <ele>8.31</ele>
        <time>2020-08-10T09:50:04Z</time>
      </trkpt>
      <trkpt lat="47.63085" lon="-3.19813">
        <ele>8.79</ele>
        <time>2020-08-10T09:50:21Z</time>
      </trkpt>
      <trkpt lat="47.63069" lon="-3.19803">
        <ele>8.79</ele>
        <time>2020-08-10T09:50:36Z</time>
      </trkpt>
      <trkpt lat="47.63052" lon="-3.19791">
        <ele>8.79</ele>
        <time>2020-08-10T09:50:52Z</time>
      </trkpt>
      <trkpt lat="47.63034" lon="-3.19779">
        <ele>9.27</ele>
        <time>2020-08-10T09:51:09Z</time>
      </trkpt>
      <trkpt lat="47.63017" lon="-3.19767">
        <ele>9.27</ele>
        <time>2020-08-10T09:51:25Z</time>
      </trkpt>
      <trkpt lat="47.62998" lon="-3.1975">
        <ele>9.27</ele>
        <time>2020-08-10T09:51:44Z</time>
      </trkpt>
      <trkpt lat="47.62985" lon="-3.19739">
        <ele>9.27</ele>
        <time>2020-08-10T09:51:59Z</time>
      </trkpt>
      <trkpt lat="47.62974" lon="-3.19729">
        <ele>9.75</ele>
        <time>2020-08-10T09:52:09Z</time>
      </trkpt>
      <trkpt lat="47.62973" lon="-3.19728">
        <ele>9.75</ele>
        <time>2020-08-10T09:52:11Z</time>
      </trkpt>
      <trkpt lat="47.6297" lon="-3.19727">
        <ele>9.27</ele>
        <time>2020-08-10T09:52:14Z</time>
      </trkpt>
      <trkpt lat="47.62959" lon="-3.19718">
        <ele>9.75</ele>
        <time>2020-08-10T09:52:25Z</time>
      </trkpt>
      <trkpt lat="47.62943" lon="-3.19705">
        <ele>10.23</ele>
        <time>2020-08-10T09:52:42Z</time>
      </trkpt>
      <trkpt lat="47.62935" lon="-3.19697">
        <ele>9.75</ele>
        <time>2020-08-10T09:52:51Z</time>
      </trkpt>
      <trkpt lat="47.6293" lon="-3.19691">
        <ele>10.23</ele>
        <time>2020-08-10T09:52:57Z</time>
      </trkpt>
      <trkpt lat="47.62911" lon="-3.1968">
        <ele>9.27</ele>
        <time>2020-08-10T09:53:14Z</time>
      </trkpt>
      <trkpt lat="47.62909" lon="-3.19679">
        <ele>8.79</ele>
        <time>2020-08-10T09:53:16Z</time>
      </trkpt>
      <trkpt lat="47.62894" lon="-3.19676">
        <ele>9.27</ele>
        <time>2020-08-10T09:53:30Z</time>
      </trkpt>
      <trkpt lat="47.62893" lon="-3.19675">
        <ele>9.27</ele>
        <time>2020-08-10T09:53:35Z</time>
      </trkpt>
      <trkpt lat="47.62876" lon="-3.19676">
        <ele>8.79</ele>
        <time>2020-08-10T09:53:49Z</time>
      </trkpt>
      <trkpt lat="47.62859" lon="-3.19676">
        <ele>8.31</ele>
        <time>2020-08-10T09:54:04Z</time>
      </trkpt>
      <trkpt lat="47.62843" lon="-3.19676">
        <ele>8.31</ele>
        <time>2020-08-10T09:54:18Z</time>
      </trkpt>
      <trkpt lat="47.62825" lon="-3.19677">
        <ele>8.79</ele>
        <time>2020-08-10T09:54:34Z</time>
      </trkpt>
      <trkpt lat="47.62816" lon="-3.19677">
        <ele>9.27</ele>
        <time>2020-08-10T09:54:45Z</time>
      </trkpt>
      <trkpt lat="47.62812" lon="-3.19677">
        <ele>9.27</ele>
        <time>2020-08-10T09:54:48Z</time>
      </trkpt>
      <trkpt lat="47.62797" lon="-3.19679">
        <ele>10.23</ele>
        <time>2020-08-10T09:55:01Z</time>
      </trkpt>
      <trkpt lat="47.62782" lon="-3.19679">
        <ele>9.75</ele>
        <time>2020-08-10T09:55:14Z</time>
      </trkpt>
      <trkpt lat="47.62764" lon="-3.1968">
        <ele>9.75</ele>
        <time>2020-08-10T09:55:29Z</time>
      </trkpt>
      <trkpt lat="47.62759" lon="-3.19678">
        <ele>9.75</ele>
        <time>2020-08-10T09:55:34Z</time>
      </trkpt>
      <trkpt lat="47.62754" lon="-3.19678">
        <ele>9.27</ele>
        <time>2020-08-10T09:55:38Z</time>
      </trkpt>
      <trkpt lat="47.62744" lon="-3.19679">
        <ele>10.23</ele>
        <time>2020-08-10T09:55:47Z</time>
      </trkpt>
      <trkpt lat="47.62732" lon="-3.19679">
        <ele>10.23</ele>
        <time>2020-08-10T09:55:58Z</time>
      </trkpt>
      <trkpt lat="47.62728" lon="-3.19679">
        <ele>9.27</ele>
        <time>2020-08-10T09:56:01Z</time>
      </trkpt>
      <trkpt lat="47.62711" lon="-3.1968">
        <ele>8.79</ele>
        <time>2020-08-10T09:56:16Z</time>
      </trkpt>
      <trkpt lat="47.62696" lon="-3.1968">
        <ele>7.83</ele>
        <time>2020-08-10T09:56:29Z</time>
      </trkpt>
      <trkpt lat="47.62684" lon="-3.19681">
        <ele>8.31</ele>
        <time>2020-08-10T09:56:39Z</time>
      </trkpt>
      <trkpt lat="47.62666" lon="-3.1968">
        <ele>7.83</ele>
        <time>2020-08-10T09:56:55Z</time>
      </trkpt>
      <trkpt lat="47.6265" lon="-3.1968">
        <ele>8.31</ele>
        <time>2020-08-10T09:57:08Z</time>
      </trkpt>
      <trkpt lat="47.62643" lon="-3.19679">
        <ele>8.79</ele>
        <time>2020-08-10T09:57:15Z</time>
      </trkpt>
      <trkpt lat="47.62641" lon="-3.1968">
        <ele>8.31</ele>
        <time>2020-08-10T09:57:17Z</time>
      </trkpt>
      <trkpt lat="47.62623" lon="-3.19679">
        <ele>8.79</ele>
        <time>2020-08-10T09:57:33Z</time>
      </trkpt>
      <trkpt lat="47.62607" lon="-3.19677">
        <ele>8.79</ele>
        <time>2020-08-10T09:57:48Z</time>
      </trkpt>
      <trkpt lat="47.62594" lon="-3.19678">
        <ele>9.27</ele>
        <time>2020-08-10T09:58:00Z</time>
      </trkpt>
      <trkpt lat="47.62592" lon="-3.19678">
        <ele>8.79</ele>
        <time>2020-08-10T09:58:02Z</time>
      </trkpt>
      <trkpt lat="47.62576" lon="-3.19678">
        <ele>8.31</ele>
        <time>2020-08-10T09:58:17Z</time>
      </trkpt>
      <trkpt lat="47.62564" lon="-3.19677">
        <ele>7.83</ele>
        <time>2020-08-10T09:58:26Z</time>
      </trkpt>
      <trkpt lat="47.62561" lon="-3.19678">
        <ele>7.83</ele>
        <time>2020-08-10T09:58:30Z</time>
      </trkpt>
      <trkpt lat="47.62555" lon="-3.19678">
        <ele>7.35</ele>
        <time>2020-08-10T09:58:35Z</time>
      </trkpt>
      <trkpt lat="47.62539" lon="-3.19676">
        <ele>7.35</ele>
        <time>2020-08-10T09:58:49Z</time>
      </trkpt>
      <trkpt lat="47.62522" lon="-3.19676">
        <ele>8.31</ele>
        <time>2020-08-10T09:59:04Z</time>
      </trkpt>
      <trkpt lat="47.62503" lon="-3.19676">
        <ele>8.31</ele>
        <time>2020-08-10T09:59:21Z</time>
      </trkpt>
      <trkpt lat="47.62501" lon="-3.19676">
        <ele>8.31</ele>
        <time>2020-08-10T09:59:22Z</time>
      </trkpt>
      <trkpt lat="47.62484" lon="-3.19675">
        <ele>7.83</ele>
        <time>2020-08-10T09:59:37Z</time>
      </trkpt>
      <trkpt lat="47.62468" lon="-3.19674">
        <ele>7.83</ele>
        <time>2020-08-10T09:59:52Z</time>
      </trkpt>
      <trkpt lat="47.62451" lon="-3.19673">
        <ele>7.35</ele>
        <time>2020-08-10T10:00:08Z</time>
      </trkpt>
      <trkpt lat="47.62441" lon="-3.19672">
        <ele>7.83</ele>
        <time>2020-08-10T10:00:18Z</time>
      </trkpt>
      <trkpt lat="47.62422" lon="-3.19664">
        <ele>8.31</ele>
        <time>2020-08-10T10:00:36Z</time>
      </trkpt>
      <trkpt lat="47.62419" lon="-3.1966">
        <ele>7.83</ele>
        <time>2020-08-10T10:00:41Z</time>
      </trkpt>
      <trkpt lat="47.62408" lon="-3.19647">
        <ele>8.31</ele>
        <time>2020-08-10T10:00:54Z</time>
      </trkpt>
      <trkpt lat="47.62402" lon="-3.19636">
        <ele>8.31</ele>
        <time>2020-08-10T10:01:03Z</time>
      </trkpt>
      <trkpt lat="47.62394" lon="-3.19616">
        <ele>8.31</ele>
        <time>2020-08-10T10:01:17Z</time>
      </trkpt>
      <trkpt lat="47.62386" lon="-3.19598">
        <ele>8.31</ele>
        <time>2020-08-10T10:01:30Z</time>
      </trkpt>
      <trkpt lat="47.62377" lon="-3.19574">
        <ele>8.79</ele>
        <time>2020-08-10T10:01:47Z</time>
      </trkpt>
      <trkpt lat="47.62371" lon="-3.1956">
        <ele>9.27</ele>
        <time>2020-08-10T10:01:58Z</time>
      </trkpt>
      <trkpt lat="47.62369" lon="-3.19553">
        <ele>9.27</ele>
        <time>2020-08-10T10:02:02Z</time>
      </trkpt>
      <trkpt lat="47.62357" lon="-3.19531">
        <ele>9.75</ele>
        <time>2020-08-10T10:02:19Z</time>
      </trkpt>
      <trkpt lat="47.62345" lon="-3.19509">
        <ele>9.75</ele>
        <time>2020-08-10T10:02:36Z</time>
      </trkpt>
      <trkpt lat="47.62343" lon="-3.19504">
        <ele>9.75</ele>
        <time>2020-08-10T10:02:40Z</time>
      </trkpt>
      <trkpt lat="47.62332" lon="-3.1948">
        <ele>9.75</ele>
        <time>2020-08-10T10:02:57Z</time>
      </trkpt>
      <trkpt lat="47.62321" lon="-3.19453">
        <ele>9.27</ele>
        <time>2020-08-10T10:03:15Z</time>
      </trkpt>
      <trkpt lat="47.62309" lon="-3.19429">
        <ele>9.27</ele>
        <time>2020-08-10T10:03:32Z</time>
      </trkpt>
      <trkpt lat="47.62302" lon="-3.19415">
        <ele>8.79</ele>
        <time>2020-08-10T10:03:42Z</time>
      </trkpt>
      <trkpt lat="47.62299" lon="-3.19409">
        <ele>9.27</ele>
        <time>2020-08-10T10:03:46Z</time>
      </trkpt>
      <trkpt lat="47.62292" lon="-3.19385">
        <ele>9.27</ele>
        <time>2020-08-10T10:04:01Z</time>
      </trkpt>
      <trkpt lat="47.62284" lon="-3.19363">
        <ele>8.79</ele>
        <time>2020-08-10T10:04:19Z</time>
      </trkpt>
      <trkpt lat="47.62286" lon="-3.19362">
        <ele>9.27</ele>
        <time>2020-08-10T10:04:22Z</time>
      </trkpt>
      <trkpt lat="47.62299" lon="-3.19349">
        <ele>9.27</ele>
        <time>2020-08-10T10:04:37Z</time>
      </trkpt>
      <trkpt lat="47.62298" lon="-3.19345">
        <ele>8.79</ele>
        <time>2020-08-10T10:04:45Z</time>
      </trkpt>
      <trkpt lat="47.62297" lon="-3.19337">
        <ele>9.27</ele>
        <time>2020-08-10T10:04:50Z</time>
      </trkpt>
      <trkpt lat="47.62286" lon="-3.19311">
        <ele>8.79</ele>
        <time>2020-08-10T10:05:07Z</time>
      </trkpt>
      <trkpt lat="47.62286" lon="-3.19309">
        <ele>8.79</ele>
        <time>2020-08-10T10:05:08Z</time>
      </trkpt>
      <trkpt lat="47.62278" lon="-3.19294">
        <ele>7.35</ele>
        <time>2020-08-10T10:05:24Z</time>
      </trkpt>
      <trkpt lat="47.62278" lon="-3.19294">
        <ele>10.71</ele>
        <time>2020-08-10T10:05:25Z</time>
      </trkpt>
      <trkpt lat="47.62279" lon="-3.19293">
        <ele>8.31</ele>
        <time>2020-08-10T10:05:35Z</time>
      </trkpt>
    </trkseg>
  </trk>
</gpx>